EXS2093 CYYT-EBBR
Flight info
| Callsign | EXS2093 |
|---|---|
| Flight time | 4h 50m |
| Altitude | 27000 |
| Route | CYYT8/10 YYT DCT NICSO DCT 48N050W/M080F320 50N040W 52N030W 54N020W DCT DOGAL DCT BEXET/N0461F350 DCT MORAG DCT NUCHU L607 BIG/N0464F290 Q70 VABIK/N0419F230 Q70 KOK |
| Aircraft | B738/M-SDE2E3FGHIRWXY/LB1 |
Departure
| Time | 2026-04-25 18:24 |
|---|---|
| Airport | St. John's International Airport (CYYT) |
Arrival
| Time | 2026-04-25 23:15 |
|---|---|
| Airport | Brussels Airport (EBBR) |
| Time | Latitude | Longitude | Altitude | Speed | Heading |
|---|---|---|---|---|---|
| 2026-04-25 17:35 | 47.61398 | -52.74325 | 469 ft | 0 kts | 201° |
| 2026-04-25 18:10 | 47.61399 | -52.74325 | 476 ft | 2 kts | 201° |
| 2026-04-25 18:10 | 47.61422 | -52.74309 | 473 ft | 4 kts | 214° |
| 2026-04-25 18:11 | 47.61442 | -52.74283 | 469 ft | 4 kts | 241° |
| 2026-04-25 18:11 | 47.61446 | -52.74252 | 470 ft | 2 kts | 292° |
| 2026-04-25 18:11 | 47.61446 | -52.74250 | 470 ft | 0 kts | 293° |
| 2026-04-25 18:16 | 47.61453 | -52.74275 | 470 ft | 3 kts | 294° |
| 2026-04-25 18:17 | 47.61462 | -52.74304 | 468 ft | 4 kts | 295° |
| 2026-04-25 18:17 | 47.61482 | -52.74340 | 473 ft | 5 kts | 330° |
| 2026-04-25 18:17 | 47.61520 | -52.74337 | 477 ft | 6 kts | 22° |
| 2026-04-25 18:17 | 47.61555 | -52.74288 | 475 ft | 9 kts | 50° |
| 2026-04-25 18:18 | 47.61613 | -52.74191 | 475 ft | 15 kts | 48° |
| 2026-04-25 18:18 | 47.61686 | -52.74075 | 471 ft | 13 kts | 29° |
| 2026-04-25 18:18 | 47.61765 | -52.74129 | 478 ft | 14 kts | 320° |
| 2026-04-25 18:18 | 47.61818 | -52.74198 | 474 ft | 16 kts | 317° |
| 2026-04-25 18:19 | 47.61910 | -52.74316 | 474 ft | 18 kts | 319° |
| 2026-04-25 18:19 | 47.62004 | -52.74435 | 477 ft | 18 kts | 319° |
| 2026-04-25 18:19 | 47.62103 | -52.74563 | 482 ft | 20 kts | 320° |
| 2026-04-25 18:19 | 47.62210 | -52.74698 | 480 ft | 21 kts | 319° |
| 2026-04-25 18:20 | 47.62321 | -52.74840 | 485 ft | 18 kts | 319° |
| 2026-04-25 18:20 | 47.62342 | -52.74867 | 485 ft | 1 kts | 319° |
| 2026-04-25 18:20 | 47.62371 | -52.74904 | 478 ft | 14 kts | 319° |
| 2026-04-25 18:20 | 47.62459 | -52.75030 | 480 ft | 19 kts | 294° |
| 2026-04-25 18:21 | 47.62453 | -52.75235 | 484 ft | 22 kts | 270° |
| 2026-04-25 18:21 | 47.62445 | -52.75489 | 483 ft | 26 kts | 266° |
| 2026-04-25 18:21 | 47.62431 | -52.75766 | 488 ft | 29 kts | 267° |
| 2026-04-25 18:21 | 47.62417 | -52.76080 | 486 ft | 32 kts | 265° |
| 2026-04-25 18:22 | 47.62401 | -52.76425 | 490 ft | 36 kts | 265° |
| 2026-04-25 18:22 | 47.62390 | -52.76635 | 490 ft | 22 kts | 265° |
| 2026-04-25 18:22 | 47.62376 | -52.76914 | 481 ft | 20 kts | 264° |
| 2026-04-25 18:22 | 47.62333 | -52.77073 | 485 ft | 13 kts | 259° |
| 2026-04-25 18:23 | 47.62358 | -52.77121 | 483 ft | 6 kts | 33° |
| 2026-04-25 18:23 | 47.62371 | -52.77040 | 483 ft | 12 kts | 85° |
| 2026-04-25 18:23 | 47.62383 | -52.76789 | 488 ft | 51 kts | 85° |
| 2026-04-25 18:23 | 47.62426 | -52.75912 | 483 ft | 118 kts | 85° |
| 2026-04-25 18:24 | 47.62508 | -52.74399 | 484 ft | 174 kts | 84° |
| 2026-04-25 18:24 | 47.62588 | -52.72569 | 1103 ft | 181 kts | 78° |
| 2026-04-25 18:24 | 47.62720 | -52.70628 | 1706 ft | 193 kts | 75° |
| 2026-04-25 18:24 | 47.63016 | -52.68686 | 2068 ft | 204 kts | 64° |
| 2026-04-25 18:25 | 47.63404 | -52.66573 | 2333 ft | 218 kts | 71° |
| 2026-04-25 18:25 | 47.63699 | -52.64344 | 2874 ft | 221 kts | 72° |
| 2026-04-25 18:25 | 47.63987 | -52.62067 | 3317 ft | 227 kts | 72° |
| 2026-04-25 18:25 | 47.64289 | -52.59758 | 3762 ft | 235 kts | 72° |
| 2026-04-25 18:26 | 47.64606 | -52.57305 | 4197 ft | 245 kts | 72° |
| 2026-04-25 18:26 | 47.64705 | -52.54721 | 4310 ft | 260 kts | 94° |
| 2026-04-25 18:26 | 47.64057 | -52.52203 | 4355 ft | 270 kts | 109° |
| 2026-04-25 18:26 | 47.63237 | -52.49701 | 4366 ft | 269 kts | 108° |
| 2026-04-25 18:27 | 47.62462 | -52.47195 | 4359 ft | 266 kts | 104° |
| 2026-04-25 18:27 | 47.61822 | -52.44607 | 4553 ft | 269 kts | 102° |
| 2026-04-25 18:27 | 47.61210 | -52.41998 | 5343 ft | 267 kts | 102° |
| 2026-04-25 18:27 | 47.60582 | -52.39409 | 6081 ft | 268 kts | 103° |
| 2026-04-25 18:28 | 47.59929 | -52.36802 | 6697 ft | 272 kts | 104° |
| 2026-04-25 18:28 | 47.59248 | -52.34156 | 7358 ft | 276 kts | 104° |
| 2026-04-25 18:28 | 47.58548 | -52.31490 | 8032 ft | 279 kts | 105° |
| 2026-04-25 18:29 | 47.57098 | -52.26063 | 9299 ft | 287 kts | 105° |
| 2026-04-25 18:29 | 47.56347 | -52.23274 | 9699 ft | 299 kts | 105° |
| 2026-04-25 18:30 | 47.53815 | -52.13924 | 10171 ft | 355 kts | 107° |
| 2026-04-25 18:30 | 47.52871 | -52.10463 | 10297 ft | 371 kts | 107° |
| 2026-04-25 18:30 | 47.51883 | -52.06850 | 10499 ft | 385 kts | 107° |
| 2026-04-25 18:30 | 47.50931 | -52.03123 | 10938 ft | 387 kts | 101° |
| 2026-04-25 18:31 | 47.50627 | -51.99230 | 11490 ft | 379 kts | 82° |
| 2026-04-25 18:31 | 47.51093 | -51.95437 | 12089 ft | 373 kts | 68° |
| 2026-04-25 18:31 | 47.52007 | -51.91846 | 12648 ft | 374 kts | 65° |
| 2026-04-25 18:31 | 47.52969 | -51.88238 | 13178 ft | 378 kts | 64° |
| 2026-04-25 18:32 | 47.53940 | -51.84614 | 13739 ft | 378 kts | 64° |
| 2026-04-25 18:32 | 47.54907 | -51.80978 | 14288 ft | 380 kts | 65° |
| 2026-04-25 18:32 | 47.55873 | -51.77317 | 14776 ft | 383 kts | 65° |
| 2026-04-25 18:32 | 47.56827 | -51.73667 | 15248 ft | 386 kts | 65° |
| 2026-04-25 18:33 | 47.57795 | -51.69942 | 15741 ft | 388 kts | 65° |
| 2026-04-25 18:33 | 47.58767 | -51.66182 | 16231 ft | 391 kts | 65° |
| 2026-04-25 18:33 | 47.59736 | -51.62415 | 16808 ft | 392 kts | 64° |
| 2026-04-25 18:33 | 47.60708 | -51.58632 | 17301 ft | 394 kts | 64° |
| 2026-04-25 18:34 | 47.61686 | -51.54818 | 17749 ft | 397 kts | 64° |
| 2026-04-25 18:34 | 47.62667 | -51.50983 | 18149 ft | 399 kts | 64° |
| 2026-04-25 18:34 | 47.63652 | -51.47127 | 18551 ft | 400 kts | 64° |
| 2026-04-25 18:34 | 47.64636 | -51.43267 | 19029 ft | 401 kts | 64° |
| 2026-04-25 18:35 | 47.65622 | -51.39394 | 19465 ft | 402 kts | 64° |
| 2026-04-25 18:35 | 47.66597 | -51.35558 | 19812 ft | 404 kts | 64° |
| 2026-04-25 18:35 | 47.67591 | -51.31643 | 20174 ft | 407 kts | 64° |
| 2026-04-25 18:35 | 47.68590 | -51.27698 | 20552 ft | 408 kts | 64° |
| 2026-04-25 18:36 | 47.69591 | -51.23740 | 20927 ft | 410 kts | 64° |
| 2026-04-25 18:36 | 47.70595 | -51.19762 | 21283 ft | 412 kts | 64° |
| 2026-04-25 18:36 | 47.71602 | -51.15767 | 21633 ft | 414 kts | 64° |
| 2026-04-25 18:36 | 47.72612 | -51.11748 | 21975 ft | 416 kts | 63° |
| 2026-04-25 18:37 | 47.73624 | -51.07721 | 22306 ft | 418 kts | 63° |
| 2026-04-25 18:37 | 47.74640 | -51.03664 | 22702 ft | 418 kts | 63° |
| 2026-04-25 18:37 | 47.75650 | -50.99624 | 23101 ft | 417 kts | 63° |
| 2026-04-25 18:37 | 47.76661 | -50.95571 | 23374 ft | 419 kts | 64° |
| 2026-04-25 18:38 | 47.77663 | -50.91553 | 23612 ft | 421 kts | 64° |
| 2026-04-25 18:38 | 47.78681 | -50.87465 | 23842 ft | 423 kts | 64° |
| 2026-04-25 18:38 | 47.79705 | -50.83344 | 24061 ft | 426 kts | 64° |
| 2026-04-25 18:38 | 47.80732 | -50.79205 | 24252 ft | 429 kts | 64° |
| 2026-04-25 18:39 | 47.81770 | -50.75012 | 24457 ft | 432 kts | 64° |
| 2026-04-25 18:39 | 47.82808 | -50.70809 | 24696 ft | 433 kts | 64° |
| 2026-04-25 18:39 | 47.83847 | -50.66588 | 24967 ft | 434 kts | 64° |
| 2026-04-25 18:39 | 47.84885 | -50.62369 | 25262 ft | 434 kts | 65° |
| 2026-04-25 18:40 | 47.85925 | -50.58133 | 25531 ft | 435 kts | 65° |
| 2026-04-25 18:40 | 47.86950 | -50.53947 | 25789 ft | 436 kts | 65° |
| 2026-04-25 18:40 | 47.87987 | -50.49706 | 26073 ft | 436 kts | 66° |
| 2026-04-25 18:40 | 47.89023 | -50.45461 | 26269 ft | 437 kts | 66° |
| 2026-04-25 18:41 | 47.90068 | -50.41176 | 26249 ft | 439 kts | 66° |
| 2026-04-25 18:41 | 47.91108 | -50.36900 | 26243 ft | 438 kts | 66° |
| 2026-04-25 18:41 | 47.92142 | -50.32638 | 26238 ft | 436 kts | 66° |
| 2026-04-25 18:41 | 47.93172 | -50.28387 | 26248 ft | 435 kts | 66° |
| 2026-04-25 18:42 | 47.94197 | -50.24149 | 26247 ft | 434 kts | 66° |
| 2026-04-25 18:42 | 47.94874 | -50.21344 | 26262 ft | 434 kts | 66° |
| 2026-04-25 18:42 | 47.96225 | -50.15741 | 26260 ft | 434 kts | 66° |
| 2026-04-25 18:42 | 47.97247 | -50.11493 | 26249 ft | 434 kts | 66° |
| 2026-04-25 18:43 | 47.98266 | -50.07251 | 26249 ft | 434 kts | 66° |
| 2026-04-25 18:43 | 47.99283 | -50.03004 | 26252 ft | 434 kts | 67° |
| 2026-04-25 18:43 | 48.00301 | -49.98760 | 26235 ft | 434 kts | 66° |
| 2026-04-25 18:43 | 48.01346 | -49.94529 | 26245 ft | 435 kts | 66° |
| 2026-04-25 18:44 | 48.02412 | -49.90299 | 26249 ft | 435 kts | 66° |
| 2026-04-25 18:44 | 48.03485 | -49.86069 | 26241 ft | 436 kts | 66° |
| 2026-04-25 18:44 | 48.04558 | -49.81833 | 26283 ft | 436 kts | 66° |
| 2026-04-25 18:44 | 48.05633 | -49.77565 | 26244 ft | 442 kts | 68° |
| 2026-04-25 18:45 | 48.06720 | -49.73243 | 26258 ft | 446 kts | 68° |
| 2026-04-25 18:45 | 48.07816 | -49.68867 | 26256 ft | 450 kts | 68° |
| 2026-04-25 18:45 | 48.08914 | -49.64465 | 26253 ft | 452 kts | 68° |
| 2026-04-25 18:45 | 48.10009 | -49.60057 | 26239 ft | 452 kts | 68° |
| 2026-04-25 18:46 | 48.11104 | -49.55642 | 26244 ft | 452 kts | 68° |
| 2026-04-25 18:46 | 48.12193 | -49.51239 | 26245 ft | 451 kts | 68° |
| 2026-04-25 18:46 | 48.13267 | -49.46891 | 26248 ft | 451 kts | 68° |
| 2026-04-25 18:46 | 48.14355 | -49.42480 | 26248 ft | 451 kts | 68° |
| 2026-04-25 18:47 | 48.15439 | -49.38074 | 26249 ft | 450 kts | 69° |
| 2026-04-25 18:47 | 48.16521 | -49.33668 | 26249 ft | 450 kts | 69° |
| 2026-04-25 18:47 | 48.17601 | -49.29264 | 26253 ft | 450 kts | 69° |
| 2026-04-25 18:47 | 48.18677 | -49.24863 | 26254 ft | 450 kts | 69° |
| 2026-04-25 18:48 | 48.19756 | -49.20445 | 26256 ft | 450 kts | 69° |
| 2026-04-25 18:48 | 48.20831 | -49.16032 | 26256 ft | 451 kts | 69° |
| 2026-04-25 18:48 | 48.21891 | -49.11671 | 26255 ft | 451 kts | 69° |
| 2026-04-25 18:48 | 48.22964 | -49.07251 | 26255 ft | 451 kts | 69° |
| 2026-04-25 18:49 | 48.24036 | -49.02825 | 26263 ft | 451 kts | 69° |
| 2026-04-25 18:49 | 48.25105 | -48.98405 | 26264 ft | 451 kts | 69° |
| 2026-04-25 18:49 | 48.26175 | -48.93970 | 26262 ft | 451 kts | 69° |
| 2026-04-25 18:49 | 48.27244 | -48.89530 | 26263 ft | 452 kts | 69° |
| 2026-04-25 18:50 | 48.28310 | -48.85093 | 26267 ft | 452 kts | 69° |
| 2026-04-25 18:50 | 48.29376 | -48.80645 | 26276 ft | 452 kts | 70° |
| 2026-04-25 18:50 | 48.30444 | -48.76180 | 26270 ft | 454 kts | 70° |
| 2026-04-25 18:50 | 48.31501 | -48.71756 | 26276 ft | 456 kts | 70° |
| 2026-04-25 18:51 | 48.32573 | -48.67259 | 26270 ft | 458 kts | 70° |
| 2026-04-25 18:51 | 48.32934 | -48.65742 | 26274 ft | 457 kts | 70° |
| 2026-04-25 18:51 | 48.34713 | -48.58252 | 26265 ft | 456 kts | 70° |
| 2026-04-25 18:51 | 48.35773 | -48.53778 | 26257 ft | 454 kts | 71° |
| 2026-04-25 18:52 | 48.36833 | -48.49295 | 26273 ft | 454 kts | 72° |
| 2026-04-25 18:52 | 48.37889 | -48.44810 | 26271 ft | 456 kts | 71° |
| 2026-04-25 18:52 | 48.38949 | -48.40308 | 26283 ft | 456 kts | 71° |
| 2026-04-25 18:52 | 48.40010 | -48.35799 | 26286 ft | 458 kts | 71° |
| 2026-04-25 18:53 | 48.41072 | -48.31278 | 26296 ft | 458 kts | 72° |
| 2026-04-25 18:53 | 48.42135 | -48.26737 | 26295 ft | 459 kts | 72° |
| 2026-04-25 18:53 | 48.43195 | -48.22193 | 26295 ft | 460 kts | 71° |
| 2026-04-25 18:53 | 48.44250 | -48.17648 | 26295 ft | 460 kts | 71° |
| 2026-04-25 18:54 | 48.46351 | -48.08598 | 26287 ft | 459 kts | 72° |
| 2026-04-25 18:54 | 48.47404 | -48.04056 | 26298 ft | 459 kts | 72° |
| 2026-04-25 18:54 | 48.48455 | -47.99513 | 26306 ft | 458 kts | 73° |
| 2026-04-25 18:55 | 48.49498 | -47.94984 | 26298 ft | 458 kts | 71° |
| 2026-04-25 18:55 | 48.50541 | -47.90448 | 26296 ft | 457 kts | 71° |
| 2026-04-25 18:55 | 48.51583 | -47.85908 | 26314 ft | 457 kts | 72° |
| 2026-04-25 18:55 | 48.52618 | -47.81377 | 26299 ft | 459 kts | 72° |
| 2026-04-25 18:56 | 48.53661 | -47.76801 | 26319 ft | 463 kts | 73° |
| 2026-04-25 18:56 | 48.54717 | -47.72182 | 26327 ft | 468 kts | 73° |
| 2026-04-25 18:56 | 48.55779 | -47.67518 | 26321 ft | 471 kts | 72° |
| 2026-04-25 18:56 | 48.56843 | -47.62836 | 26320 ft | 472 kts | 72° |
| 2026-04-25 18:57 | 48.57908 | -47.58136 | 26322 ft | 472 kts | 71° |
| 2026-04-25 18:57 | 48.58972 | -47.53436 | 26323 ft | 473 kts | 72° |
| 2026-04-25 18:57 | 48.60023 | -47.48777 | 26330 ft | 473 kts | 73° |
| 2026-04-25 18:57 | 48.60380 | -47.47193 | 26335 ft | 473 kts | 72° |
| 2026-04-25 18:58 | 48.62136 | -47.39364 | 26334 ft | 473 kts | 73° |
| 2026-04-25 18:58 | 48.64247 | -47.29940 | 26333 ft | 472 kts | 72° |
| 2026-04-25 18:58 | 48.65297 | -47.25241 | 26323 ft | 472 kts | 73° |
| 2026-04-25 18:59 | 48.67387 | -47.15831 | 26349 ft | 471 kts | 73° |
| 2026-04-25 18:59 | 48.69457 | -47.06486 | 26350 ft | 470 kts | 75° |
| 2026-04-25 19:00 | 48.71531 | -46.97087 | 26356 ft | 470 kts | 74° |
| 2026-04-25 19:00 | 48.72561 | -46.92383 | 26353 ft | 470 kts | 73° |
| 2026-04-25 19:01 | 48.74611 | -46.82995 | 26353 ft | 469 kts | 74° |
| 2026-04-25 19:01 | 48.75638 | -46.78277 | 26354 ft | 471 kts | 75° |
| 2026-04-25 19:01 | 48.76667 | -46.73549 | 26363 ft | 473 kts | 74° |
| 2026-04-25 19:01 | 48.77700 | -46.68789 | 26373 ft | 477 kts | 75° |
| 2026-04-25 19:02 | 48.79763 | -46.59265 | 26378 ft | 479 kts | 76° |
| 2026-04-25 19:02 | 48.80802 | -46.54451 | 26382 ft | 479 kts | 75° |
| 2026-04-25 19:02 | 48.81843 | -46.49639 | 26385 ft | 480 kts | 75° |
| 2026-04-25 19:03 | 48.83226 | -46.43193 | 26395 ft | 479 kts | 76° |
| 2026-04-25 19:03 | 48.84932 | -46.35190 | 26377 ft | 479 kts | 75° |
| 2026-04-25 19:03 | 48.85958 | -46.30369 | 26394 ft | 479 kts | 75° |
| 2026-04-25 19:04 | 48.88001 | -46.20748 | 26381 ft | 478 kts | 75° |
| 2026-04-25 19:04 | 48.89007 | -46.15996 | 26389 ft | 478 kts | 75° |
| 2026-04-25 19:05 | 48.91034 | -46.06382 | 26392 ft | 477 kts | 75° |
| 2026-04-25 19:05 | 48.93049 | -45.96782 | 26396 ft | 476 kts | 75° |
| 2026-04-25 19:05 | 48.94051 | -45.91994 | 26414 ft | 475 kts | 76° |
| 2026-04-25 19:06 | 48.95053 | -45.87189 | 26416 ft | 475 kts | 76° |
| 2026-04-25 19:06 | 48.96710 | -45.79215 | 26419 ft | 475 kts | 76° |
| 2026-04-25 19:06 | 48.97701 | -45.74432 | 26422 ft | 474 kts | 76° |
| 2026-04-25 19:07 | 48.99679 | -45.64851 | 26427 ft | 474 kts | 76° |
| 2026-04-25 19:07 | 49.00666 | -45.60054 | 26429 ft | 474 kts | 76° |
| 2026-04-25 19:08 | 49.02633 | -45.50459 | 26415 ft | 475 kts | 76° |
| 2026-04-25 19:08 | 49.03613 | -45.45657 | 26422 ft | 474 kts | 76° |
| 2026-04-25 19:09 | 49.06542 | -45.31254 | 26442 ft | 474 kts | 77° |
| 2026-04-25 19:09 | 49.07184 | -45.28080 | 26442 ft | 474 kts | 77° |
| 2026-04-25 19:09 | 49.09440 | -45.16890 | 26449 ft | 474 kts | 77° |
| 2026-04-25 19:10 | 49.10417 | -45.12023 | 26457 ft | 474 kts | 77° |
| 2026-04-25 19:10 | 49.11381 | -45.07212 | 26439 ft | 474 kts | 77° |
| 2026-04-25 19:10 | 49.12330 | -45.02462 | 26453 ft | 474 kts | 77° |
| 2026-04-25 19:10 | 49.13290 | -44.97645 | 26455 ft | 474 kts | 77° |
| 2026-04-25 19:11 | 49.14248 | -44.92827 | 26457 ft | 474 kts | 77° |
| 2026-04-25 19:11 | 49.15209 | -44.87984 | 26463 ft | 474 kts | 77° |
| 2026-04-25 19:11 | 49.16162 | -44.83165 | 26463 ft | 474 kts | 77° |
| 2026-04-25 19:11 | 49.17114 | -44.78342 | 26462 ft | 474 kts | 77° |
| 2026-04-25 19:12 | 49.18064 | -44.73515 | 26460 ft | 475 kts | 78° |
| 2026-04-25 19:12 | 49.19013 | -44.68682 | 26471 ft | 475 kts | 78° |
| 2026-04-25 19:12 | 49.19961 | -44.63841 | 26479 ft | 475 kts | 78° |
| 2026-04-25 19:12 | 49.20910 | -44.58986 | 26482 ft | 476 kts | 78° |
| 2026-04-25 19:13 | 49.21856 | -44.54129 | 26485 ft | 477 kts | 78° |
| 2026-04-25 19:13 | 49.22801 | -44.49265 | 26484 ft | 478 kts | 78° |
| 2026-04-25 19:13 | 49.23736 | -44.44445 | 26485 ft | 478 kts | 78° |
| 2026-04-25 19:13 | 49.24679 | -44.39571 | 26484 ft | 479 kts | 78° |
| 2026-04-25 19:14 | 49.25622 | -44.34681 | 26487 ft | 479 kts | 78° |
| 2026-04-25 19:14 | 49.26259 | -44.31371 | 26487 ft | 479 kts | 78° |
| 2026-04-25 19:14 | 49.27508 | -44.24871 | 26485 ft | 480 kts | 78° |
| 2026-04-25 19:14 | 49.28446 | -44.19970 | 26457 ft | 480 kts | 78° |
| 2026-04-25 19:15 | 49.29384 | -44.15056 | 26485 ft | 479 kts | 78° |
| 2026-04-25 19:15 | 49.30318 | -44.10153 | 26485 ft | 479 kts | 78° |
| 2026-04-25 19:15 | 49.31251 | -44.05243 | 26488 ft | 479 kts | 78° |
| 2026-04-25 19:15 | 49.32182 | -44.00331 | 26495 ft | 479 kts | 78° |
| 2026-04-25 19:16 | 49.33108 | -43.95430 | 26494 ft | 479 kts | 78° |
| 2026-04-25 19:16 | 49.34033 | -43.90521 | 26495 ft | 479 kts | 78° |
| 2026-04-25 19:16 | 49.34943 | -43.85677 | 26497 ft | 479 kts | 79° |
| 2026-04-25 19:16 | 49.35863 | -43.80772 | 26502 ft | 478 kts | 79° |
| 2026-04-25 19:17 | 49.36783 | -43.75853 | 26501 ft | 478 kts | 79° |
| 2026-04-25 19:17 | 49.37698 | -43.70943 | 26461 ft | 478 kts | 79° |
| 2026-04-25 19:17 | 49.38610 | -43.66042 | 26496 ft | 477 kts | 79° |
| 2026-04-25 19:17 | 49.39519 | -43.61138 | 26499 ft | 478 kts | 79° |
| 2026-04-25 19:18 | 49.40429 | -43.56222 | 26506 ft | 478 kts | 80° |
| 2026-04-25 19:18 | 49.41338 | -43.51293 | 26509 ft | 479 kts | 80° |
| 2026-04-25 19:18 | 49.42244 | -43.46369 | 26517 ft | 480 kts | 80° |
| 2026-04-25 19:18 | 49.43147 | -43.41444 | 26516 ft | 480 kts | 80° |
| 2026-04-25 19:19 | 49.44043 | -43.36552 | 26517 ft | 481 kts | 80° |
| 2026-04-25 19:19 | 49.44947 | -43.31600 | 26516 ft | 481 kts | 80° |
| 2026-04-25 19:19 | 49.45848 | -43.26648 | 26483 ft | 482 kts | 81° |
| 2026-04-25 19:19 | 49.46446 | -43.23361 | 26515 ft | 482 kts | 81° |
| 2026-04-25 19:20 | 49.47649 | -43.16716 | 26513 ft | 482 kts | 81° |
| 2026-04-25 19:20 | 49.48547 | -43.11745 | 26514 ft | 483 kts | 81° |
| 2026-04-25 19:20 | 49.49447 | -43.06747 | 26528 ft | 483 kts | 81° |
| 2026-04-25 19:20 | 49.50342 | -43.01763 | 26523 ft | 484 kts | 81° |
| 2026-04-25 19:21 | 49.51235 | -42.96776 | 26523 ft | 484 kts | 81° |
| 2026-04-25 19:21 | 49.53017 | -42.86783 | 26522 ft | 484 kts | 81° |
| 2026-04-25 19:21 | 49.53896 | -42.81840 | 26495 ft | 484 kts | 82° |
| 2026-04-25 19:22 | 49.54784 | -42.76829 | 26520 ft | 484 kts | 82° |
| 2026-04-25 19:22 | 49.55668 | -42.71827 | 26523 ft | 484 kts | 82° |
| 2026-04-25 19:22 | 49.57429 | -42.61801 | 26500 ft | 484 kts | 83° |
| 2026-04-25 19:23 | 49.58305 | -42.56792 | 26525 ft | 484 kts | 83° |
| 2026-04-25 19:23 | 49.60058 | -42.46746 | 26534 ft | 485 kts | 83° |
| 2026-04-25 19:23 | 49.60921 | -42.41777 | 26531 ft | 486 kts | 83° |
| 2026-04-25 19:24 | 49.61793 | -42.36742 | 26496 ft | 486 kts | 84° |
| 2026-04-25 19:24 | 49.62664 | -42.31698 | 26531 ft | 486 kts | 84° |
| 2026-04-25 19:24 | 49.64401 | -42.21595 | 26537 ft | 487 kts | 84° |
| 2026-04-25 19:25 | 49.66133 | -42.11461 | 26543 ft | 488 kts | 84° |
| 2026-04-25 19:25 | 49.66985 | -42.06457 | 26543 ft | 488 kts | 84° |
| 2026-04-25 19:25 | 49.67845 | -42.01387 | 26543 ft | 489 kts | 84° |
| 2026-04-25 19:26 | 49.68706 | -41.96301 | 26547 ft | 489 kts | 84° |
| 2026-04-25 19:26 | 49.69563 | -41.91220 | 26488 ft | 489 kts | 84° |
| 2026-04-25 19:26 | 49.70418 | -41.86138 | 26529 ft | 488 kts | 84° |
| 2026-04-25 19:26 | 49.71270 | -41.81059 | 26539 ft | 488 kts | 85° |
| 2026-04-25 19:27 | 49.72120 | -41.75980 | 26543 ft | 488 kts | 85° |
| 2026-04-25 19:27 | 49.72681 | -41.72612 | 26547 ft | 488 kts | 85° |
| 2026-04-25 19:27 | 49.73811 | -41.65819 | 26548 ft | 488 kts | 85° |
| 2026-04-25 19:27 | 49.74653 | -41.60737 | 26548 ft | 488 kts | 85° |
| 2026-04-25 19:28 | 49.75482 | -41.55718 | 26502 ft | 488 kts | 85° |
| 2026-04-25 19:28 | 49.76320 | -41.50636 | 26537 ft | 487 kts | 85° |
| 2026-04-25 19:28 | 49.77156 | -41.45547 | 26543 ft | 487 kts | 85° |
| 2026-04-25 19:28 | 49.77986 | -41.40473 | 26520 ft | 486 kts | 85° |
| 2026-04-25 19:29 | 49.78815 | -41.35397 | 26558 ft | 486 kts | 85° |
| 2026-04-25 19:29 | 49.79641 | -41.30319 | 26549 ft | 487 kts | 85° |
| 2026-04-25 19:29 | 49.80467 | -41.25229 | 26547 ft | 487 kts | 85° |
| 2026-04-25 19:29 | 49.81289 | -41.20142 | 26553 ft | 488 kts | 85° |
| 2026-04-25 19:30 | 49.82112 | -41.15035 | 26561 ft | 488 kts | 85° |
| 2026-04-25 19:30 | 49.82933 | -41.09930 | 26564 ft | 488 kts | 85° |
| 2026-04-25 19:30 | 49.83752 | -41.04824 | 26553 ft | 489 kts | 85° |
| 2026-04-25 19:30 | 49.84569 | -40.99708 | 26552 ft | 489 kts | 85° |
| 2026-04-25 19:31 | 49.85385 | -40.94588 | 26514 ft | 489 kts | 85° |
| 2026-04-25 19:31 | 49.86198 | -40.89472 | 26551 ft | 489 kts | 85° |
| 2026-04-25 19:31 | 49.86998 | -40.84419 | 26555 ft | 489 kts | 85° |
| 2026-04-25 19:31 | 49.87808 | -40.79284 | 26558 ft | 489 kts | 85° |
| 2026-04-25 19:32 | 49.88616 | -40.74148 | 26566 ft | 490 kts | 85° |
| 2026-04-25 19:32 | 49.89422 | -40.69010 | 26562 ft | 490 kts | 85° |
| 2026-04-25 19:32 | 49.90225 | -40.63870 | 26563 ft | 491 kts | 86° |
| 2026-04-25 19:32 | 49.90756 | -40.60468 | 26565 ft | 491 kts | 86° |
| 2026-04-25 19:33 | 49.91829 | -40.53562 | 26563 ft | 491 kts | 86° |
| 2026-04-25 19:33 | 49.92629 | -40.48397 | 26534 ft | 491 kts | 85° |
| 2026-04-25 19:33 | 49.93418 | -40.43295 | 26539 ft | 491 kts | 85° |
| 2026-04-25 19:33 | 49.94212 | -40.38139 | 26564 ft | 491 kts | 85° |
| 2026-04-25 19:34 | 49.95003 | -40.32979 | 26566 ft | 491 kts | 85° |
| 2026-04-25 19:34 | 49.95791 | -40.27815 | 26573 ft | 492 kts | 85° |
| 2026-04-25 19:34 | 49.96580 | -40.22636 | 26576 ft | 493 kts | 85° |
| 2026-04-25 19:34 | 49.97366 | -40.17461 | 26575 ft | 493 kts | 85° |
| 2026-04-25 19:35 | 49.98154 | -40.12264 | 26577 ft | 494 kts | 85° |
| 2026-04-25 19:35 | 49.98940 | -40.07062 | 26578 ft | 494 kts | 85° |
| 2026-04-25 19:35 | 49.99724 | -40.01858 | 26578 ft | 495 kts | 85° |
| 2026-04-25 19:35 | 50.00673 | -39.96687 | 26575 ft | 502 kts | 79° |
| 2026-04-25 19:36 | 50.01899 | -39.91581 | 26594 ft | 505 kts | 77° |
| 2026-04-25 19:36 | 50.03210 | -39.86499 | 26585 ft | 506 kts | 76° |
| 2026-04-25 19:36 | 50.04534 | -39.81478 | 26582 ft | 506 kts | 76° |
| 2026-04-25 19:36 | 50.05863 | -39.76415 | 26584 ft | 506 kts | 76° |
| 2026-04-25 19:37 | 50.07178 | -39.71333 | 26588 ft | 505 kts | 76° |
| 2026-04-25 19:37 | 50.08472 | -39.66251 | 26587 ft | 504 kts | 77° |
| 2026-04-25 19:37 | 50.09749 | -39.61163 | 26543 ft | 503 kts | 76° |
| 2026-04-25 19:37 | 50.11013 | -39.56086 | 26586 ft | 502 kts | 77° |
| 2026-04-25 19:38 | 50.12267 | -39.51015 | 26584 ft | 502 kts | 77° |
| 2026-04-25 19:38 | 50.13519 | -39.45938 | 26585 ft | 501 kts | 77° |
| 2026-04-25 19:38 | 50.14768 | -39.40856 | 26595 ft | 501 kts | 77° |
| 2026-04-25 19:38 | 50.16001 | -39.35836 | 26597 ft | 501 kts | 77° |
| 2026-04-25 19:39 | 50.17244 | -39.30766 | 26597 ft | 501 kts | 77° |
| 2026-04-25 19:39 | 50.18488 | -39.25683 | 26601 ft | 501 kts | 77° |
| 2026-04-25 19:39 | 50.19729 | -39.20602 | 26602 ft | 500 kts | 77° |
| 2026-04-25 19:39 | 50.20967 | -39.15525 | 26584 ft | 500 kts | 77° |
| 2026-04-25 19:40 | 50.22201 | -39.10450 | 26598 ft | 500 kts | 77° |
| 2026-04-25 19:40 | 50.23434 | -39.05371 | 26599 ft | 500 kts | 77° |
| 2026-04-25 19:40 | 50.24664 | -39.00288 | 26609 ft | 500 kts | 77° |
| 2026-04-25 19:40 | 50.25893 | -38.95199 | 26614 ft | 500 kts | 77° |
| 2026-04-25 19:41 | 50.27121 | -38.90102 | 26577 ft | 500 kts | 77° |
| 2026-04-25 19:41 | 50.28344 | -38.85015 | 26611 ft | 500 kts | 77° |
| 2026-04-25 19:41 | 50.29551 | -38.79982 | 26612 ft | 501 kts | 77° |
| 2026-04-25 19:41 | 50.29962 | -38.78265 | 26613 ft | 501 kts | 77° |
| 2026-04-25 19:42 | 50.31990 | -38.69780 | 26609 ft | 500 kts | 77° |
| 2026-04-25 19:42 | 50.33206 | -38.64673 | 26606 ft | 501 kts | 77° |
| 2026-04-25 19:42 | 50.34418 | -38.59571 | 26619 ft | 501 kts | 77° |
| 2026-04-25 19:42 | 50.35632 | -38.54449 | 26623 ft | 501 kts | 77° |
| 2026-04-25 19:43 | 50.36842 | -38.49331 | 26627 ft | 501 kts | 77° |
| 2026-04-25 19:43 | 50.38051 | -38.44205 | 26625 ft | 501 kts | 77° |
| 2026-04-25 19:43 | 50.39259 | -38.39075 | 26627 ft | 502 kts | 77° |
| 2026-04-25 19:43 | 50.40465 | -38.33940 | 26595 ft | 502 kts | 76° |
| 2026-04-25 19:44 | 50.41667 | -38.28809 | 26620 ft | 501 kts | 76° |
| 2026-04-25 19:44 | 50.42867 | -38.23675 | 26634 ft | 502 kts | 76° |
| 2026-04-25 19:44 | 50.44067 | -38.18525 | 26637 ft | 503 kts | 76° |
| 2026-04-25 19:44 | 50.45268 | -38.13360 | 26624 ft | 503 kts | 76° |
| 2026-04-25 19:45 | 50.46464 | -38.08201 | 26630 ft | 503 kts | 76° |
| 2026-04-25 19:45 | 50.47646 | -38.03099 | 26634 ft | 503 kts | 76° |
| 2026-04-25 19:45 | 50.48838 | -37.97935 | 26640 ft | 503 kts | 77° |
| 2026-04-25 19:45 | 50.50031 | -37.92758 | 26634 ft | 503 kts | 77° |
| 2026-04-25 19:46 | 50.51220 | -37.87582 | 26638 ft | 503 kts | 76° |
| 2026-04-25 19:46 | 50.52407 | -37.82404 | 26630 ft | 503 kts | 76° |
| 2026-04-25 19:46 | 50.53592 | -37.77223 | 26634 ft | 503 kts | 76° |
| 2026-04-25 19:46 | 50.54771 | -37.72053 | 26650 ft | 503 kts | 76° |
| 2026-04-25 19:47 | 50.55950 | -37.66875 | 26652 ft | 503 kts | 76° |
| 2026-04-25 19:47 | 50.57129 | -37.61682 | 26652 ft | 503 kts | 76° |
| 2026-04-25 19:47 | 50.58302 | -37.56499 | 26659 ft | 503 kts | 76° |
| 2026-04-25 19:47 | 50.59460 | -37.51375 | 26659 ft | 503 kts | 76° |
| 2026-04-25 19:48 | 50.60629 | -37.46185 | 26628 ft | 502 kts | 75° |
| 2026-04-25 19:48 | 50.61792 | -37.41012 | 26652 ft | 501 kts | 75° |
| 2026-04-25 19:48 | 50.62958 | -37.35812 | 26654 ft | 500 kts | 75° |
| 2026-04-25 19:48 | 50.64115 | -37.30641 | 26665 ft | 500 kts | 76° |
| 2026-04-25 19:49 | 50.65265 | -37.25488 | 26661 ft | 499 kts | 76° |
| 2026-04-25 19:49 | 50.65639 | -37.23806 | 26660 ft | 499 kts | 76° |
| 2026-04-25 19:49 | 50.67560 | -37.15161 | 26672 ft | 498 kts | 76° |
| 2026-04-25 19:49 | 50.68702 | -37.10004 | 26674 ft | 498 kts | 76° |
| 2026-04-25 19:50 | 50.70976 | -36.99711 | 26662 ft | 496 kts | 75° |
| 2026-04-25 19:50 | 50.72091 | -36.94646 | 26682 ft | 495 kts | 75° |
| 2026-04-25 19:50 | 50.73215 | -36.89516 | 26681 ft | 495 kts | 75° |
| 2026-04-25 19:51 | 50.74336 | -36.84384 | 26691 ft | 494 kts | 75° |
| 2026-04-25 19:51 | 50.75455 | -36.79249 | 26694 ft | 494 kts | 75° |
| 2026-04-25 19:51 | 50.76572 | -36.74112 | 26694 ft | 494 kts | 75° |
| 2026-04-25 19:51 | 50.77687 | -36.68973 | 26704 ft | 495 kts | 76° |
| 2026-04-25 19:52 | 50.78801 | -36.63826 | 26698 ft | 495 kts | 76° |
| 2026-04-25 19:52 | 50.79916 | -36.58663 | 26677 ft | 495 kts | 75° |
| 2026-04-25 19:52 | 50.81025 | -36.53517 | 26701 ft | 495 kts | 75° |
| 2026-04-25 19:52 | 50.82135 | -36.48356 | 26705 ft | 495 kts | 75° |
| 2026-04-25 19:53 | 50.83242 | -36.43190 | 26708 ft | 496 kts | 75° |
| 2026-04-25 19:53 | 50.84347 | -36.38023 | 26709 ft | 496 kts | 75° |
| 2026-04-25 19:53 | 50.85451 | -36.32846 | 26714 ft | 497 kts | 75° |
| 2026-04-25 19:53 | 50.86541 | -36.27726 | 26717 ft | 497 kts | 75° |
| 2026-04-25 19:54 | 50.87643 | -36.22534 | 26720 ft | 497 kts | 76° |
| 2026-04-25 19:54 | 50.88742 | -36.17340 | 26702 ft | 497 kts | 75° |
| 2026-04-25 19:54 | 50.89841 | -36.12136 | 26717 ft | 497 kts | 75° |
| 2026-04-25 19:54 | 50.90211 | -36.10379 | 26720 ft | 498 kts | 75° |
| 2026-04-25 19:55 | 50.91662 | -36.03481 | 26723 ft | 498 kts | 76° |
| 2026-04-25 19:55 | 50.92754 | -35.98273 | 26735 ft | 498 kts | 76° |
| 2026-04-25 19:55 | 50.93846 | -35.93050 | 26734 ft | 499 kts | 76° |
| 2026-04-25 19:55 | 50.94936 | -35.87824 | 26732 ft | 499 kts | 76° |
| 2026-04-25 19:56 | 50.96026 | -35.82589 | 26738 ft | 499 kts | 76° |
| 2026-04-25 19:56 | 50.97113 | -35.77351 | 26740 ft | 499 kts | 76° |
| 2026-04-25 19:56 | 50.98201 | -35.72094 | 26739 ft | 500 kts | 76° |
| 2026-04-25 19:56 | 50.99270 | -35.66916 | 26739 ft | 500 kts | 76° |
| 2026-04-25 19:57 | 51.00349 | -35.61672 | 26748 ft | 500 kts | 76° |
| 2026-04-25 19:57 | 51.01428 | -35.56417 | 26748 ft | 499 kts | 76° |
| 2026-04-25 19:57 | 51.02502 | -35.51178 | 26748 ft | 499 kts | 76° |
| 2026-04-25 19:57 | 51.03574 | -35.45925 | 26749 ft | 499 kts | 76° |
| 2026-04-25 19:58 | 51.04642 | -35.40683 | 26751 ft | 499 kts | 76° |
| 2026-04-25 19:58 | 51.05714 | -35.35411 | 26749 ft | 499 kts | 76° |
| 2026-04-25 19:58 | 51.06778 | -35.30158 | 26748 ft | 499 kts | 76° |
| 2026-04-25 19:58 | 51.07838 | -35.24913 | 26747 ft | 498 kts | 76° |
| 2026-04-25 19:59 | 51.08896 | -35.19662 | 26754 ft | 498 kts | 76° |
| 2026-04-25 19:59 | 51.09937 | -35.14486 | 26761 ft | 498 kts | 76° |
| 2026-04-25 19:59 | 51.10987 | -35.09247 | 26768 ft | 497 kts | 76° |
| 2026-04-25 19:59 | 51.12038 | -35.03992 | 26753 ft | 497 kts | 77° |
| 2026-04-25 20:00 | 51.13084 | -34.98745 | 26761 ft | 497 kts | 76° |
| 2026-04-25 20:00 | 51.13792 | -34.95199 | 26756 ft | 497 kts | 77° |
| 2026-04-25 20:00 | 51.15172 | -34.88249 | 26785 ft | 497 kts | 77° |
| 2026-04-25 20:00 | 51.16210 | -34.82994 | 26757 ft | 497 kts | 77° |
| 2026-04-25 20:01 | 51.18282 | -34.72468 | 26792 ft | 497 kts | 77° |
| 2026-04-25 20:01 | 51.19313 | -34.67208 | 26794 ft | 497 kts | 77° |
| 2026-04-25 20:01 | 51.20344 | -34.61938 | 26794 ft | 497 kts | 77° |
| 2026-04-25 20:02 | 51.21360 | -34.56729 | 26801 ft | 497 kts | 77° |
| 2026-04-25 20:02 | 51.22385 | -34.51459 | 26800 ft | 497 kts | 77° |
| 2026-04-25 20:02 | 51.23409 | -34.46186 | 26799 ft | 497 kts | 77° |
| 2026-04-25 20:02 | 51.24429 | -34.40916 | 26801 ft | 497 kts | 77° |
| 2026-04-25 20:03 | 51.25445 | -34.35651 | 26786 ft | 497 kts | 78° |
| 2026-04-25 20:03 | 51.26459 | -34.30382 | 26796 ft | 496 kts | 78° |
| 2026-04-25 20:03 | 51.27470 | -34.25116 | 26799 ft | 496 kts | 78° |
| 2026-04-25 20:03 | 51.28479 | -34.19839 | 26813 ft | 496 kts | 78° |
| 2026-04-25 20:04 | 51.29486 | -34.14566 | 26818 ft | 495 kts | 78° |
| 2026-04-25 20:04 | 51.30488 | -34.09300 | 26815 ft | 495 kts | 78° |
| 2026-04-25 20:04 | 51.31487 | -34.04035 | 26813 ft | 495 kts | 78° |
| 2026-04-25 20:04 | 51.32484 | -33.98766 | 26822 ft | 495 kts | 78° |
| 2026-04-25 20:05 | 51.33467 | -33.93555 | 26820 ft | 495 kts | 78° |
| 2026-04-25 20:05 | 51.34459 | -33.88284 | 26816 ft | 494 kts | 78° |
| 2026-04-25 20:05 | 51.35449 | -33.83011 | 26830 ft | 494 kts | 78° |
| 2026-04-25 20:05 | 51.36434 | -33.77745 | 26830 ft | 494 kts | 78° |
| 2026-04-25 20:06 | 51.37415 | -33.72488 | 26832 ft | 493 kts | 78° |
| 2026-04-25 20:06 | 51.38394 | -33.67226 | 26832 ft | 493 kts | 78° |
| 2026-04-25 20:06 | 51.39371 | -33.61963 | 26838 ft | 493 kts | 78° |
| 2026-04-25 20:06 | 51.40346 | -33.56694 | 26839 ft | 493 kts | 78° |
| 2026-04-25 20:07 | 51.41304 | -33.51499 | 26837 ft | 492 kts | 78° |
| 2026-04-25 20:07 | 51.42274 | -33.46228 | 26829 ft | 492 kts | 78° |
| 2026-04-25 20:07 | 51.43241 | -33.40956 | 26836 ft | 492 kts | 78° |
| 2026-04-25 20:07 | 51.44202 | -33.35699 | 26843 ft | 492 kts | 78° |
| 2026-04-25 20:08 | 51.45163 | -33.30429 | 26844 ft | 492 kts | 78° |
| 2026-04-25 20:08 | 51.46125 | -33.25143 | 26853 ft | 493 kts | 78° |
| 2026-04-25 20:08 | 51.47081 | -33.19868 | 26854 ft | 493 kts | 78° |
| 2026-04-25 20:08 | 51.48037 | -33.14582 | 26853 ft | 493 kts | 78° |
| 2026-04-25 20:09 | 51.48991 | -33.09290 | 26860 ft | 493 kts | 78° |
| 2026-04-25 20:09 | 51.49942 | -33.03995 | 26860 ft | 494 kts | 78° |
| 2026-04-25 20:09 | 51.50892 | -32.98695 | 26840 ft | 494 kts | 77° |
| 2026-04-25 20:09 | 51.51825 | -32.93475 | 26864 ft | 493 kts | 77° |
| 2026-04-25 20:10 | 51.52770 | -32.88176 | 26871 ft | 494 kts | 77° |
| 2026-04-25 20:10 | 51.53713 | -32.82870 | 26867 ft | 494 kts | 77° |
| 2026-04-25 20:10 | 51.54654 | -32.77556 | 26870 ft | 494 kts | 77° |
| 2026-04-25 20:10 | 51.55593 | -32.72241 | 26882 ft | 494 kts | 77° |
| 2026-04-25 20:11 | 51.56531 | -32.66915 | 26882 ft | 494 kts | 78° |
| 2026-04-25 20:11 | 51.57463 | -32.61607 | 26884 ft | 494 kts | 78° |
| 2026-04-25 20:11 | 51.58394 | -32.56288 | 26881 ft | 494 kts | 78° |
| 2026-04-25 20:11 | 51.59322 | -32.50970 | 26877 ft | 494 kts | 77° |
| 2026-04-25 20:12 | 51.60250 | -32.45638 | 26896 ft | 494 kts | 77° |
| 2026-04-25 20:12 | 51.61174 | -32.40312 | 26901 ft | 495 kts | 77° |
| 2026-04-25 20:12 | 51.62088 | -32.35028 | 26906 ft | 495 kts | 77° |
| 2026-04-25 20:12 | 51.62711 | -32.31416 | 26905 ft | 496 kts | 77° |
| 2026-04-25 20:13 | 51.63930 | -32.24324 | 26883 ft | 496 kts | 77° |
| 2026-04-25 20:13 | 51.64848 | -32.18967 | 26896 ft | 496 kts | 78° |
| 2026-04-25 20:13 | 51.65762 | -32.13619 | 26905 ft | 496 kts | 78° |
| 2026-04-25 20:13 | 51.66675 | -32.08264 | 26893 ft | 496 kts | 77° |
| 2026-04-25 20:14 | 51.67587 | -32.02893 | 26893 ft | 496 kts | 77° |
| 2026-04-25 20:14 | 51.68496 | -31.97525 | 26911 ft | 496 kts | 77° |
| 2026-04-25 20:14 | 51.69401 | -31.92159 | 26917 ft | 496 kts | 77° |
| 2026-04-25 20:14 | 51.70305 | -31.86789 | 26920 ft | 496 kts | 77° |
| 2026-04-25 20:15 | 51.71205 | -31.81421 | 26914 ft | 497 kts | 77° |
| 2026-04-25 20:15 | 51.72094 | -31.76104 | 26922 ft | 497 kts | 78° |
| 2026-04-25 20:15 | 51.72991 | -31.70722 | 26923 ft | 497 kts | 78° |
| 2026-04-25 20:15 | 51.73886 | -31.65339 | 26922 ft | 497 kts | 78° |
| 2026-04-25 20:16 | 51.74780 | -31.59940 | 26921 ft | 497 kts | 77° |
| 2026-04-25 20:16 | 51.75672 | -31.54543 | 26924 ft | 497 kts | 77° |
| 2026-04-25 20:16 | 51.76560 | -31.49149 | 26928 ft | 497 kts | 77° |
| 2026-04-25 20:16 | 51.77447 | -31.43738 | 26935 ft | 497 kts | 77° |
| 2026-04-25 20:17 | 51.78329 | -31.38343 | 26940 ft | 497 kts | 77° |
| 2026-04-25 20:17 | 51.79210 | -31.32940 | 26939 ft | 497 kts | 77° |
| 2026-04-25 20:17 | 51.80089 | -31.27535 | 26941 ft | 497 kts | 77° |
| 2026-04-25 20:17 | 51.80962 | -31.22139 | 26951 ft | 497 kts | 78° |
| 2026-04-25 20:18 | 51.81834 | -31.16739 | 26949 ft | 497 kts | 78° |
| 2026-04-25 20:18 | 51.82705 | -31.11328 | 26947 ft | 497 kts | 78° |
| 2026-04-25 20:18 | 51.83574 | -31.05911 | 26948 ft | 497 kts | 78° |
| 2026-04-25 20:18 | 51.84427 | -31.00576 | 26954 ft | 497 kts | 78° |
| 2026-04-25 20:19 | 51.85291 | -30.95158 | 26956 ft | 496 kts | 78° |
| 2026-04-25 20:19 | 51.86151 | -30.89744 | 26956 ft | 496 kts | 78° |
| 2026-04-25 20:19 | 51.87008 | -30.84333 | 26955 ft | 496 kts | 78° |
| 2026-04-25 20:19 | 51.87861 | -30.78930 | 26957 ft | 496 kts | 78° |
| 2026-04-25 20:20 | 51.88712 | -30.73520 | 26952 ft | 496 kts | 78° |
| 2026-04-25 20:20 | 51.89562 | -30.68099 | 26956 ft | 496 kts | 78° |
| 2026-04-25 20:20 | 51.90408 | -30.62681 | 26954 ft | 496 kts | 78° |
| 2026-04-25 20:20 | 51.91253 | -30.57259 | 26965 ft | 496 kts | 78° |
| 2026-04-25 20:21 | 51.92085 | -30.51900 | 26967 ft | 496 kts | 78° |
| 2026-04-25 20:21 | 51.92924 | -30.46475 | 26967 ft | 496 kts | 78° |
| 2026-04-25 20:21 | 51.93761 | -30.41047 | 26968 ft | 496 kts | 78° |
| 2026-04-25 20:21 | 51.94595 | -30.35624 | 26969 ft | 497 kts | 78° |
| 2026-04-25 20:22 | 51.95427 | -30.30187 | 26965 ft | 497 kts | 78° |
| 2026-04-25 20:22 | 51.95708 | -30.28351 | 26974 ft | 497 kts | 78° |
| 2026-04-25 20:22 | 51.97088 | -30.19291 | 26975 ft | 497 kts | 78° |
| 2026-04-25 20:22 | 51.97913 | -30.13847 | 26972 ft | 497 kts | 78° |
| 2026-04-25 20:23 | 51.98737 | -30.08403 | 26977 ft | 498 kts | 78° |
| 2026-04-25 20:23 | 51.99559 | -30.02952 | 26981 ft | 498 kts | 78° |
| 2026-04-25 20:23 | 52.00492 | -29.97540 | 26976 ft | 499 kts | 72° |
| 2026-04-25 20:23 | 52.01733 | -29.92269 | 26989 ft | 500 kts | 69° |
| 2026-04-25 20:24 | 52.03069 | -29.87050 | 26984 ft | 500 kts | 68° |
| 2026-04-25 20:24 | 52.04433 | -29.81858 | 26982 ft | 501 kts | 68° |
| 2026-04-25 20:24 | 52.05799 | -29.76647 | 26984 ft | 501 kts | 68° |
| 2026-04-25 20:24 | 52.07150 | -29.71422 | 26981 ft | 501 kts | 68° |
| 2026-04-25 20:25 | 52.08482 | -29.66194 | 26984 ft | 501 kts | 68° |
| 2026-04-25 20:25 | 52.09784 | -29.61013 | 26988 ft | 501 kts | 68° |
| 2026-04-25 20:25 | 52.11092 | -29.55761 | 26995 ft | 501 kts | 68° |
| 2026-04-25 20:25 | 52.12394 | -29.50498 | 26996 ft | 501 kts | 69° |
| 2026-04-25 20:26 | 52.13690 | -29.45243 | 26996 ft | 501 kts | 69° |
| 2026-04-25 20:26 | 52.14983 | -29.39983 | 26995 ft | 501 kts | 69° |
| 2026-04-25 20:26 | 52.16277 | -29.34714 | 26997 ft | 500 kts | 69° |
| 2026-04-25 20:26 | 52.17573 | -29.29426 | 26990 ft | 500 kts | 68° |
| 2026-04-25 20:27 | 52.18862 | -29.24152 | 26996 ft | 500 kts | 68° |
| 2026-04-25 20:27 | 52.20146 | -29.18894 | 26998 ft | 500 kts | 68° |
| 2026-04-25 20:27 | 52.21432 | -29.13612 | 26999 ft | 500 kts | 68° |
| 2026-04-25 20:27 | 52.22695 | -29.08417 | 27008 ft | 499 kts | 68° |
| 2026-04-25 20:28 | 52.23974 | -29.03141 | 26998 ft | 499 kts | 68° |
| 2026-04-25 20:28 | 52.25248 | -28.97875 | 27006 ft | 499 kts | 69° |
| 2026-04-25 20:28 | 52.26522 | -28.92592 | 26999 ft | 499 kts | 69° |
| 2026-04-25 20:28 | 52.27791 | -28.87322 | 27005 ft | 499 kts | 69° |
| 2026-04-25 20:29 | 52.29057 | -28.82045 | 27009 ft | 498 kts | 68° |
| 2026-04-25 20:29 | 52.30321 | -28.76766 | 27007 ft | 498 kts | 68° |
| 2026-04-25 20:29 | 52.31583 | -28.71486 | 27002 ft | 498 kts | 68° |
| 2026-04-25 20:29 | 52.32840 | -28.66211 | 27009 ft | 498 kts | 68° |
| 2026-04-25 20:30 | 52.34093 | -28.60938 | 27013 ft | 498 kts | 68° |
| 2026-04-25 20:30 | 52.35345 | -28.55659 | 27011 ft | 498 kts | 68° |
| 2026-04-25 20:30 | 52.36582 | -28.50432 | 27009 ft | 497 kts | 68° |
| 2026-04-25 20:30 | 52.37827 | -28.45157 | 27018 ft | 497 kts | 68° |
| 2026-04-25 20:31 | 52.39073 | -28.39864 | 27011 ft | 497 kts | 68° |
| 2026-04-25 20:31 | 52.40315 | -28.34572 | 27009 ft | 497 kts | 68° |
| 2026-04-25 20:31 | 52.41555 | -28.29280 | 27021 ft | 497 kts | 68° |
| 2026-04-25 20:31 | 52.42793 | -28.23984 | 27015 ft | 497 kts | 68° |
| 2026-04-25 20:32 | 52.44027 | -28.18689 | 27008 ft | 497 kts | 68° |
| 2026-04-25 20:32 | 52.45258 | -28.13395 | 27018 ft | 497 kts | 68° |
| 2026-04-25 20:32 | 52.46487 | -28.08095 | 27019 ft | 497 kts | 68° |
| 2026-04-25 20:32 | 52.47715 | -28.02791 | 27015 ft | 497 kts | 68° |
| 2026-04-25 20:33 | 52.48922 | -27.97557 | 27012 ft | 497 kts | 68° |
| 2026-04-25 20:33 | 52.50160 | -27.92183 | 27023 ft | 497 kts | 68° |
| 2026-04-25 20:33 | 52.51380 | -27.86872 | 27010 ft | 497 kts | 68° |
| 2026-04-25 20:33 | 52.51774 | -27.85152 | 27013 ft | 497 kts | 68° |
| 2026-04-25 20:34 | 52.53813 | -27.76237 | 27022 ft | 497 kts | 68° |
| 2026-04-25 20:34 | 52.55009 | -27.70986 | 27011 ft | 498 kts | 68° |
| 2026-04-25 20:34 | 52.56221 | -27.65655 | 27017 ft | 498 kts | 68° |
| 2026-04-25 20:34 | 52.57431 | -27.60320 | 27019 ft | 498 kts | 69° |
| 2026-04-25 20:35 | 52.58639 | -27.54981 | 27011 ft | 498 kts | 69° |
| 2026-04-25 20:35 | 52.59844 | -27.49641 | 27032 ft | 498 kts | 69° |
| 2026-04-25 20:35 | 52.61046 | -27.44302 | 27019 ft | 498 kts | 69° |
| 2026-04-25 20:35 | 52.62246 | -27.38953 | 27016 ft | 498 kts | 69° |
| 2026-04-25 20:36 | 52.63443 | -27.33609 | 27025 ft | 498 kts | 69° |
| 2026-04-25 20:36 | 52.64639 | -27.28254 | 27015 ft | 498 kts | 69° |
| 2026-04-25 20:36 | 52.65831 | -27.22902 | 27031 ft | 498 kts | 69° |
| 2026-04-25 20:36 | 52.67024 | -27.17534 | 27021 ft | 498 kts | 69° |
| 2026-04-25 20:37 | 52.68212 | -27.12172 | 27014 ft | 498 kts | 69° |
| 2026-04-25 20:37 | 52.69399 | -27.06801 | 27025 ft | 498 kts | 69° |
| 2026-04-25 20:37 | 52.70569 | -27.01497 | 27022 ft | 498 kts | 69° |
| 2026-04-25 20:37 | 52.71751 | -26.96121 | 27019 ft | 498 kts | 69° |
| 2026-04-25 20:38 | 52.72930 | -26.90747 | 27021 ft | 498 kts | 69° |
| 2026-04-25 20:38 | 52.74121 | -26.85302 | 27023 ft | 498 kts | 69° |
| 2026-04-25 20:38 | 52.75296 | -26.79916 | 27023 ft | 498 kts | 69° |
| 2026-04-25 20:38 | 52.76467 | -26.74538 | 27023 ft | 498 kts | 69° |
| 2026-04-25 20:39 | 52.77621 | -26.69221 | 27022 ft | 498 kts | 69° |
| 2026-04-25 20:39 | 52.78802 | -26.63765 | 27020 ft | 498 kts | 69° |
| 2026-04-25 20:39 | 52.79967 | -26.58369 | 27023 ft | 498 kts | 69° |
| 2026-04-25 20:39 | 52.80345 | -26.56618 | 27021 ft | 498 kts | 69° |
| 2026-04-25 20:40 | 52.82274 | -26.47643 | 27023 ft | 498 kts | 69° |
| 2026-04-25 20:40 | 52.83430 | -26.42244 | 27025 ft | 498 kts | 69° |
| 2026-04-25 20:40 | 52.84588 | -26.36826 | 27024 ft | 498 kts | 69° |
| 2026-04-25 20:40 | 52.85739 | -26.31423 | 27025 ft | 498 kts | 69° |
| 2026-04-25 20:41 | 52.86889 | -26.26014 | 27025 ft | 498 kts | 70° |
| 2026-04-25 20:41 | 52.88036 | -26.20601 | 27025 ft | 498 kts | 70° |
| 2026-04-25 20:41 | 52.89180 | -26.15191 | 27032 ft | 498 kts | 69° |
| 2026-04-25 20:41 | 52.90321 | -26.09777 | 27027 ft | 498 kts | 69° |
| 2026-04-25 20:42 | 52.91460 | -26.04358 | 27023 ft | 498 kts | 69° |
| 2026-04-25 20:42 | 52.92598 | -25.98932 | 27024 ft | 498 kts | 69° |
| 2026-04-25 20:42 | 52.93350 | -25.95339 | 27028 ft | 498 kts | 69° |
| 2026-04-25 20:42 | 52.94481 | -25.89919 | 27027 ft | 498 kts | 70° |
| 2026-04-25 20:43 | 52.95981 | -25.82713 | 27026 ft | 498 kts | 70° |
| 2026-04-25 20:43 | 52.97107 | -25.77283 | 27027 ft | 498 kts | 70° |
| 2026-04-25 20:43 | 52.97869 | -25.73600 | 27028 ft | 498 kts | 70° |
| 2026-04-25 20:43 | 52.98979 | -25.68228 | 27028 ft | 498 kts | 70° |
| 2026-04-25 20:44 | 53.00100 | -25.62785 | 27029 ft | 498 kts | 69° |
| 2026-04-25 20:44 | 53.01218 | -25.57339 | 27026 ft | 499 kts | 70° |
| 2026-04-25 20:44 | 53.02336 | -25.51882 | 27028 ft | 499 kts | 70° |
| 2026-04-25 20:44 | 53.03450 | -25.46427 | 27027 ft | 499 kts | 70° |
| 2026-04-25 20:45 | 53.04562 | -25.40968 | 27028 ft | 499 kts | 70° |
| 2026-04-25 20:45 | 53.05673 | -25.35496 | 27028 ft | 499 kts | 70° |
| 2026-04-25 20:45 | 53.06781 | -25.30029 | 27027 ft | 499 kts | 70° |
| 2026-04-25 20:45 | 53.07887 | -25.24553 | 27027 ft | 499 kts | 70° |
| 2026-04-25 20:46 | 53.08990 | -25.19077 | 27033 ft | 499 kts | 70° |
| 2026-04-25 20:46 | 53.10091 | -25.13596 | 27026 ft | 500 kts | 70° |
| 2026-04-25 20:46 | 53.11191 | -25.08106 | 27028 ft | 500 kts | 70° |
| 2026-04-25 20:46 | 53.12286 | -25.02621 | 27030 ft | 500 kts | 70° |
| 2026-04-25 20:47 | 53.13370 | -24.97178 | 27027 ft | 500 kts | 70° |
| 2026-04-25 20:47 | 53.14463 | -24.91678 | 27028 ft | 501 kts | 70° |
| 2026-04-25 20:47 | 53.15554 | -24.86171 | 27028 ft | 501 kts | 70° |
| 2026-04-25 20:47 | 53.16642 | -24.80660 | 27027 ft | 501 kts | 70° |
| 2026-04-25 20:48 | 53.17729 | -24.75142 | 27030 ft | 501 kts | 70° |
| 2026-04-25 20:48 | 53.18812 | -24.69623 | 27034 ft | 501 kts | 70° |
| 2026-04-25 20:48 | 53.19896 | -24.64090 | 27018 ft | 502 kts | 70° |
| 2026-04-25 20:48 | 53.20977 | -24.58555 | 27017 ft | 502 kts | 70° |
| 2026-04-25 20:49 | 53.22055 | -24.53015 | 27024 ft | 502 kts | 70° |
| 2026-04-25 20:49 | 53.23131 | -24.47473 | 27027 ft | 502 kts | 70° |
| 2026-04-25 20:49 | 53.24206 | -24.41918 | 27031 ft | 502 kts | 70° |
| 2026-04-25 20:49 | 53.25277 | -24.36369 | 27030 ft | 502 kts | 70° |
| 2026-04-25 20:50 | 53.26344 | -24.30825 | 27029 ft | 502 kts | 70° |
| 2026-04-25 20:50 | 53.27411 | -24.25265 | 27041 ft | 502 kts | 70° |
| 2026-04-25 20:50 | 53.28474 | -24.19707 | 27033 ft | 502 kts | 70° |
| 2026-04-25 20:50 | 53.29522 | -24.14217 | 27030 ft | 502 kts | 70° |
| 2026-04-25 20:51 | 53.30581 | -24.08650 | 27031 ft | 502 kts | 70° |
| 2026-04-25 20:51 | 53.31638 | -24.03077 | 27033 ft | 503 kts | 70° |
| 2026-04-25 20:51 | 53.32692 | -23.97502 | 27032 ft | 503 kts | 70° |
| 2026-04-25 20:51 | 53.33743 | -23.91927 | 27034 ft | 503 kts | 70° |
| 2026-04-25 20:52 | 53.34793 | -23.86342 | 27035 ft | 503 kts | 70° |
| 2026-04-25 20:52 | 53.35487 | -23.82640 | 27035 ft | 503 kts | 70° |
| 2026-04-25 20:52 | 53.36886 | -23.75156 | 27039 ft | 503 kts | 70° |
| 2026-04-25 20:52 | 53.37929 | -23.69555 | 27035 ft | 503 kts | 70° |
| 2026-04-25 20:53 | 53.38969 | -23.63960 | 27036 ft | 503 kts | 70° |
| 2026-04-25 20:53 | 53.39993 | -23.58429 | 27038 ft | 504 kts | 71° |
| 2026-04-25 20:53 | 53.41041 | -23.52754 | 27035 ft | 504 kts | 71° |
| 2026-04-25 20:53 | 53.42061 | -23.47209 | 27035 ft | 504 kts | 71° |
| 2026-04-25 20:54 | 53.43104 | -23.41527 | 27036 ft | 504 kts | 71° |
| 2026-04-25 20:54 | 53.44118 | -23.35984 | 27036 ft | 504 kts | 71° |
| 2026-04-25 20:54 | 53.45146 | -23.30349 | 27037 ft | 504 kts | 71° |
| 2026-04-25 20:54 | 53.46169 | -23.24721 | 27037 ft | 504 kts | 71° |
| 2026-04-25 20:55 | 53.47190 | -23.19090 | 27039 ft | 504 kts | 71° |
| 2026-04-25 20:55 | 53.48209 | -23.13452 | 27039 ft | 505 kts | 71° |
| 2026-04-25 20:55 | 53.49227 | -23.07804 | 27035 ft | 505 kts | 71° |
| 2026-04-25 20:55 | 53.50239 | -23.02167 | 27036 ft | 505 kts | 71° |
| 2026-04-25 20:56 | 53.51250 | -22.96520 | 27034 ft | 505 kts | 71° |
| 2026-04-25 20:56 | 53.52258 | -22.90876 | 27037 ft | 505 kts | 71° |
| 2026-04-25 20:56 | 53.53264 | -22.85217 | 27038 ft | 505 kts | 71° |
| 2026-04-25 20:56 | 53.54268 | -22.79559 | 27050 ft | 505 kts | 71° |
| 2026-04-25 20:57 | 53.55270 | -22.73894 | 27045 ft | 506 kts | 71° |
| 2026-04-25 20:57 | 53.56269 | -22.68223 | 27043 ft | 506 kts | 71° |
| 2026-04-25 20:57 | 53.57267 | -22.62544 | 27043 ft | 506 kts | 71° |
| 2026-04-25 20:57 | 53.58264 | -22.56853 | 27043 ft | 506 kts | 71° |
| 2026-04-25 20:58 | 53.59257 | -22.51167 | 27041 ft | 507 kts | 71° |
| 2026-04-25 20:58 | 53.60237 | -22.45537 | 27041 ft | 507 kts | 71° |
| 2026-04-25 20:58 | 53.61224 | -22.39845 | 27036 ft | 507 kts | 71° |
| 2026-04-25 20:58 | 53.62211 | -22.34138 | 27038 ft | 507 kts | 72° |
| 2026-04-25 20:59 | 53.63197 | -22.28422 | 27042 ft | 507 kts | 72° |
| 2026-04-25 20:59 | 53.64179 | -22.22710 | 27042 ft | 507 kts | 72° |
| 2026-04-25 20:59 | 53.65156 | -22.17000 | 27043 ft | 507 kts | 72° |
| 2026-04-25 20:59 | 53.66132 | -22.11282 | 27038 ft | 507 kts | 72° |
| 2026-04-25 21:00 | 53.67106 | -22.05557 | 27041 ft | 507 kts | 72° |
| 2026-04-25 21:00 | 53.67422 | -22.03700 | 27041 ft | 507 kts | 72° |
| 2026-04-25 21:00 | 53.70009 | -21.88388 | 27050 ft | 507 kts | 72° |
| 2026-04-25 21:01 | 53.70971 | -21.82658 | 27046 ft | 507 kts | 72° |
| 2026-04-25 21:01 | 53.71918 | -21.77002 | 27042 ft | 507 kts | 72° |
| 2026-04-25 21:01 | 53.72875 | -21.71267 | 27046 ft | 507 kts | 72° |
| 2026-04-25 21:01 | 53.73829 | -21.65531 | 27044 ft | 507 kts | 72° |
| 2026-04-25 21:02 | 53.74792 | -21.59720 | 27043 ft | 507 kts | 72° |
| 2026-04-25 21:02 | 53.75729 | -21.54048 | 27042 ft | 507 kts | 73° |
| 2026-04-25 21:02 | 53.76685 | -21.48239 | 27045 ft | 507 kts | 73° |
| 2026-04-25 21:02 | 53.77616 | -21.42566 | 27047 ft | 507 kts | 73° |
| 2026-04-25 21:03 | 53.78555 | -21.36824 | 27048 ft | 507 kts | 73° |
| 2026-04-25 21:03 | 53.79491 | -21.31078 | 27049 ft | 507 kts | 73° |
| 2026-04-25 21:03 | 53.80424 | -21.25334 | 27048 ft | 507 kts | 73° |
| 2026-04-25 21:03 | 53.81355 | -21.19583 | 27046 ft | 507 kts | 73° |
| 2026-04-25 21:04 | 53.82283 | -21.13829 | 27048 ft | 507 kts | 73° |
| 2026-04-25 21:04 | 53.83209 | -21.08074 | 27051 ft | 506 kts | 73° |
| 2026-04-25 21:04 | 53.84132 | -21.02310 | 27054 ft | 506 kts | 73° |
| 2026-04-25 21:04 | 53.85052 | -20.96551 | 27052 ft | 506 kts | 73° |
| 2026-04-25 21:05 | 53.85970 | -20.90781 | 27047 ft | 506 kts | 73° |
| 2026-04-25 21:05 | 53.86883 | -20.85024 | 27048 ft | 506 kts | 74° |
| 2026-04-25 21:05 | 53.87794 | -20.79258 | 27053 ft | 506 kts | 75° |
| 2026-04-25 21:05 | 53.88691 | -20.73562 | 27051 ft | 506 kts | 75° |
| 2026-04-25 21:06 | 53.89596 | -20.67797 | 27048 ft | 505 kts | 75° |
| 2026-04-25 21:06 | 53.90496 | -20.62040 | 27046 ft | 505 kts | 75° |
| 2026-04-25 21:06 | 53.91394 | -20.56278 | 27054 ft | 505 kts | 75° |
| 2026-04-25 21:06 | 53.91987 | -20.52466 | 27051 ft | 505 kts | 75° |
| 2026-04-25 21:07 | 53.93180 | -20.44762 | 27053 ft | 505 kts | 75° |
| 2026-04-25 21:07 | 53.94070 | -20.38989 | 27056 ft | 504 kts | 75° |
| 2026-04-25 21:07 | 53.94956 | -20.33223 | 27058 ft | 504 kts | 76° |
| 2026-04-25 21:07 | 53.95838 | -20.27467 | 27065 ft | 504 kts | 76° |
| 2026-04-25 21:08 | 53.96717 | -20.21704 | 27061 ft | 504 kts | 76° |
| 2026-04-25 21:08 | 53.97592 | -20.15945 | 27059 ft | 503 kts | 76° |
| 2026-04-25 21:08 | 53.98466 | -20.10188 | 27065 ft | 503 kts | 76° |
| 2026-04-25 21:08 | 53.99326 | -20.04494 | 27067 ft | 503 kts | 76° |
| 2026-04-25 21:09 | 54.00312 | -19.92766 | 27080 ft | 500 kts | 89° |
| 2026-04-25 21:09 | 54.00406 | -19.86859 | 27069 ft | 501 kts | 90° |
| 2026-04-25 21:09 | 54.00474 | -19.80929 | 27077 ft | 500 kts | 91° |
| 2026-04-25 21:10 | 54.00541 | -19.75020 | 27070 ft | 500 kts | 91° |
| 2026-04-25 21:10 | 54.00618 | -19.69093 | 27076 ft | 500 kts | 90° |
| 2026-04-25 21:10 | 54.00705 | -19.63181 | 27069 ft | 500 kts | 90° |
| 2026-04-25 21:10 | 54.00800 | -19.57279 | 27076 ft | 500 kts | 90° |
| 2026-04-25 21:11 | 54.00899 | -19.51368 | 27080 ft | 500 kts | 90° |
| 2026-04-25 21:11 | 54.00998 | -19.45443 | 27077 ft | 500 kts | 90° |
| 2026-04-25 21:11 | 54.01093 | -19.39623 | 27080 ft | 500 kts | 90° |
| 2026-04-25 21:11 | 54.01187 | -19.33724 | 27079 ft | 500 kts | 90° |
| 2026-04-25 21:12 | 54.01277 | -19.27816 | 27077 ft | 499 kts | 91° |
| 2026-04-25 21:12 | 54.01364 | -19.21913 | 27083 ft | 499 kts | 91° |
| 2026-04-25 21:12 | 54.01446 | -19.16023 | 27085 ft | 498 kts | 91° |
| 2026-04-25 21:12 | 54.01501 | -19.12045 | 27086 ft | 498 kts | 91° |
| 2026-04-25 21:13 | 54.01603 | -19.04244 | 27090 ft | 498 kts | 91° |
| 2026-04-25 21:13 | 54.01677 | -18.98357 | 27090 ft | 497 kts | 91° |
| 2026-04-25 21:13 | 54.01748 | -18.92478 | 27072 ft | 497 kts | 91° |
| 2026-04-25 21:13 | 54.01816 | -18.86610 | 27088 ft | 496 kts | 91° |
| 2026-04-25 21:14 | 54.01881 | -18.80748 | 27085 ft | 496 kts | 91° |
| 2026-04-25 21:14 | 54.01943 | -18.74882 | 27098 ft | 495 kts | 91° |
| 2026-04-25 21:14 | 54.02003 | -18.69033 | 27096 ft | 495 kts | 92° |
| 2026-04-25 21:14 | 54.02058 | -18.63248 | 27105 ft | 494 kts | 92° |
| 2026-04-25 21:15 | 54.02112 | -18.57404 | 27095 ft | 494 kts | 92° |
| 2026-04-25 21:15 | 54.02162 | -18.51553 | 27097 ft | 493 kts | 92° |
| 2026-04-25 21:15 | 54.02210 | -18.45727 | 27098 ft | 493 kts | 92° |
| 2026-04-25 21:15 | 54.02255 | -18.39899 | 27106 ft | 493 kts | 92° |
| 2026-04-25 21:16 | 54.02297 | -18.34070 | 27102 ft | 493 kts | 92° |
| 2026-04-25 21:16 | 54.02336 | -18.28242 | 27101 ft | 493 kts | 92° |
| 2026-04-25 21:16 | 54.02373 | -18.22420 | 27101 ft | 493 kts | 92° |
| 2026-04-25 21:16 | 54.02406 | -18.16583 | 27093 ft | 492 kts | 92° |
| 2026-04-25 21:17 | 54.02437 | -18.10765 | 27101 ft | 492 kts | 92° |
| 2026-04-25 21:17 | 54.02465 | -18.04948 | 27103 ft | 492 kts | 92° |
| 2026-04-25 21:17 | 54.02490 | -17.99137 | 27108 ft | 491 kts | 92° |
| 2026-04-25 21:17 | 54.02512 | -17.93320 | 27106 ft | 491 kts | 92° |
| 2026-04-25 21:18 | 54.02532 | -17.87512 | 27116 ft | 491 kts | 92° |
| 2026-04-25 21:18 | 54.02549 | -17.81704 | 27109 ft | 491 kts | 92° |
| 2026-04-25 21:18 | 54.02563 | -17.75896 | 27110 ft | 491 kts | 93° |
| 2026-04-25 21:18 | 54.02574 | -17.70098 | 27113 ft | 491 kts | 93° |
| 2026-04-25 21:19 | 54.02582 | -17.64294 | 27107 ft | 491 kts | 93° |
| 2026-04-25 21:19 | 54.02587 | -17.58496 | 27116 ft | 490 kts | 93° |
| 2026-04-25 21:19 | 54.02590 | -17.52783 | 27118 ft | 490 kts | 93° |
| 2026-04-25 21:19 | 54.02590 | -17.46995 | 27115 ft | 489 kts | 93° |
| 2026-04-25 21:20 | 54.02588 | -17.41201 | 27115 ft | 489 kts | 93° |
| 2026-04-25 21:20 | 54.02586 | -17.39242 | 27116 ft | 489 kts | 93° |
| 2026-04-25 21:20 | 54.02574 | -17.29639 | 27123 ft | 488 kts | 93° |
| 2026-04-25 21:20 | 54.02562 | -17.23877 | 27123 ft | 488 kts | 93° |
| 2026-04-25 21:21 | 54.02549 | -17.18100 | 27112 ft | 488 kts | 93° |
| 2026-04-25 21:21 | 54.02532 | -17.12334 | 27121 ft | 487 kts | 93° |
| 2026-04-25 21:21 | 54.02513 | -17.06575 | 27120 ft | 487 kts | 93° |
| 2026-04-25 21:21 | 54.02491 | -17.00814 | 27128 ft | 486 kts | 93° |
| 2026-04-25 21:22 | 54.02466 | -16.95053 | 27131 ft | 486 kts | 93° |
| 2026-04-25 21:22 | 54.02438 | -16.89308 | 27132 ft | 486 kts | 93° |
| 2026-04-25 21:22 | 54.02408 | -16.83564 | 27134 ft | 486 kts | 94° |
| 2026-04-25 21:22 | 54.02375 | -16.77888 | 27134 ft | 486 kts | 94° |
| 2026-04-25 21:23 | 54.02339 | -16.72126 | 27129 ft | 486 kts | 94° |
| 2026-04-25 21:23 | 54.02301 | -16.66372 | 27132 ft | 485 kts | 94° |
| 2026-04-25 21:23 | 54.02260 | -16.60640 | 27137 ft | 485 kts | 94° |
| 2026-04-25 21:23 | 54.02216 | -16.54895 | 27136 ft | 486 kts | 94° |
| 2026-04-25 21:24 | 54.02170 | -16.49225 | 27140 ft | 486 kts | 94° |
| 2026-04-25 21:24 | 54.02120 | -16.43479 | 27139 ft | 486 kts | 94° |
| 2026-04-25 21:24 | 54.02068 | -16.37740 | 27144 ft | 486 kts | 94° |
| 2026-04-25 21:24 | 54.02013 | -16.31996 | 27145 ft | 486 kts | 94° |
| 2026-04-25 21:25 | 54.01956 | -16.26245 | 27147 ft | 486 kts | 94° |
| 2026-04-25 21:25 | 54.01895 | -16.20481 | 27147 ft | 486 kts | 94° |
| 2026-04-25 21:25 | 54.01832 | -16.14740 | 27148 ft | 486 kts | 94° |
| 2026-04-25 21:25 | 54.01766 | -16.08972 | 27147 ft | 486 kts | 94° |
| 2026-04-25 21:26 | 54.01697 | -16.03229 | 27147 ft | 486 kts | 94° |
| 2026-04-25 21:26 | 54.01627 | -15.97545 | 27132 ft | 486 kts | 94° |
| 2026-04-25 21:26 | 54.01553 | -15.91789 | 27131 ft | 486 kts | 94° |
| 2026-04-25 21:26 | 54.01476 | -15.86034 | 27142 ft | 486 kts | 94° |
| 2026-04-25 21:27 | 54.01396 | -15.80285 | 27153 ft | 486 kts | 95° |
| 2026-04-25 21:27 | 54.01314 | -15.74539 | 27156 ft | 486 kts | 95° |
| 2026-04-25 21:27 | 54.01229 | -15.68798 | 27155 ft | 486 kts | 95° |
| 2026-04-25 21:27 | 54.01142 | -15.63064 | 27155 ft | 486 kts | 95° |
| 2026-04-25 21:28 | 54.01051 | -15.57326 | 27151 ft | 486 kts | 95° |
| 2026-04-25 21:28 | 54.00958 | -15.51580 | 27161 ft | 486 kts | 95° |
| 2026-04-25 21:28 | 54.00862 | -15.45844 | 27128 ft | 486 kts | 95° |
| 2026-04-25 21:28 | 54.00764 | -15.40105 | 27150 ft | 485 kts | 95° |
| 2026-04-25 21:29 | 54.00663 | -15.34382 | 27154 ft | 485 kts | 95° |
| 2026-04-25 21:29 | 54.00560 | -15.28728 | 27157 ft | 484 kts | 95° |
| 2026-04-25 21:29 | 54.00454 | -15.23007 | 27161 ft | 484 kts | 95° |
| 2026-04-25 21:29 | 54.00345 | -15.17279 | 27162 ft | 484 kts | 95° |
| 2026-04-25 21:30 | 54.00234 | -15.11567 | 27163 ft | 484 kts | 95° |
| 2026-04-25 21:30 | 54.00120 | -15.05840 | 27169 ft | 484 kts | 95° |
| 2026-04-25 21:30 | 54.00004 | -15.00126 | 27170 ft | 484 kts | 95° |
| 2026-04-25 21:30 | 53.99943 | -14.96262 | 27169 ft | 485 kts | 94° |
| 2026-04-25 21:31 | 53.99943 | -14.88670 | 27156 ft | 485 kts | 92° |
| 2026-04-25 21:31 | 53.99987 | -14.82932 | 27162 ft | 485 kts | 92° |
| 2026-04-25 21:31 | 54.00033 | -14.77195 | 27167 ft | 485 kts | 92° |
| 2026-04-25 21:31 | 54.00068 | -14.71460 | 27171 ft | 485 kts | 92° |
| 2026-04-25 21:32 | 54.00085 | -14.67664 | 27165 ft | 485 kts | 92° |
| 2026-04-25 21:32 | 54.00099 | -14.61947 | 27171 ft | 485 kts | 93° |
| 2026-04-25 21:32 | 54.00105 | -14.56213 | 27174 ft | 484 kts | 93° |
| 2026-04-25 21:32 | 54.00106 | -14.50482 | 27171 ft | 484 kts | 93° |
| 2026-04-25 21:33 | 54.00103 | -14.44749 | 27174 ft | 484 kts | 93° |
| 2026-04-25 21:33 | 54.00098 | -14.39017 | 27175 ft | 484 kts | 93° |
| 2026-04-25 21:33 | 54.00091 | -14.33304 | 27153 ft | 484 kts | 93° |
| 2026-04-25 21:33 | 54.00081 | -14.27582 | 27175 ft | 483 kts | 93° |
| 2026-04-25 21:34 | 54.00070 | -14.21859 | 27180 ft | 483 kts | 93° |
| 2026-04-25 21:34 | 54.00055 | -14.16150 | 27182 ft | 483 kts | 93° |
| 2026-04-25 21:34 | 54.00039 | -14.10450 | 27182 ft | 482 kts | 94° |
| 2026-04-25 21:34 | 54.00020 | -14.04742 | 27182 ft | 482 kts | 94° |
| 2026-04-25 21:35 | 53.99938 | -13.99103 | 27174 ft | 480 kts | 98° |
| 2026-04-25 21:35 | 53.99475 | -13.93522 | 27197 ft | 476 kts | 104° |
| 2026-04-25 21:35 | 53.98859 | -13.87992 | 27177 ft | 476 kts | 105° |
| 2026-04-25 21:35 | 53.98210 | -13.82474 | 27176 ft | 476 kts | 105° |
| 2026-04-25 21:36 | 53.97558 | -13.76960 | 27171 ft | 476 kts | 105° |
| 2026-04-25 21:36 | 53.96916 | -13.71450 | 27179 ft | 476 kts | 104° |
| 2026-04-25 21:36 | 53.96283 | -13.65920 | 27177 ft | 475 kts | 104° |
| 2026-04-25 21:36 | 53.95659 | -13.60398 | 27184 ft | 475 kts | 104° |
| 2026-04-25 21:37 | 53.95048 | -13.54954 | 27193 ft | 475 kts | 104° |
| 2026-04-25 21:37 | 53.94631 | -13.51224 | 27195 ft | 475 kts | 104° |
| 2026-04-25 21:37 | 53.93813 | -13.43922 | 27193 ft | 475 kts | 104° |
| 2026-04-25 21:37 | 53.93193 | -13.38415 | 27193 ft | 475 kts | 104° |
| 2026-04-25 21:38 | 53.92569 | -13.32903 | 27195 ft | 475 kts | 104° |
| 2026-04-25 21:38 | 53.91944 | -13.27398 | 27196 ft | 475 kts | 104° |
| 2026-04-25 21:38 | 53.91313 | -13.21879 | 27187 ft | 475 kts | 104° |
| 2026-04-25 21:38 | 53.90680 | -13.16369 | 27184 ft | 475 kts | 104° |
| 2026-04-25 21:39 | 53.90054 | -13.10934 | 27194 ft | 475 kts | 104° |
| 2026-04-25 21:39 | 53.89415 | -13.05420 | 27206 ft | 476 kts | 104° |
| 2026-04-25 21:39 | 53.88775 | -12.99921 | 27198 ft | 476 kts | 104° |
| 2026-04-25 21:39 | 53.88132 | -12.94416 | 27197 ft | 476 kts | 104° |
| 2026-04-25 21:40 | 53.87486 | -12.88909 | 27198 ft | 476 kts | 104° |
| 2026-04-25 21:40 | 53.86837 | -12.83402 | 27208 ft | 476 kts | 104° |
| 2026-04-25 21:40 | 53.86186 | -12.77898 | 27200 ft | 477 kts | 104° |
| 2026-04-25 21:40 | 53.85533 | -12.72395 | 27200 ft | 477 kts | 105° |
| 2026-04-25 21:41 | 53.84874 | -12.66877 | 27200 ft | 477 kts | 105° |
| 2026-04-25 21:41 | 53.84216 | -12.61379 | 27195 ft | 477 kts | 105° |
| 2026-04-25 21:41 | 53.83563 | -12.55951 | 27180 ft | 477 kts | 105° |
| 2026-04-25 21:41 | 53.82898 | -12.50444 | 27199 ft | 477 kts | 105° |
| 2026-04-25 21:42 | 53.82231 | -12.44945 | 27203 ft | 477 kts | 105° |
| 2026-04-25 21:42 | 53.81561 | -12.39445 | 27209 ft | 478 kts | 105° |
| 2026-04-25 21:42 | 53.80887 | -12.33931 | 27211 ft | 478 kts | 105° |
| 2026-04-25 21:42 | 53.80211 | -12.28422 | 27210 ft | 478 kts | 105° |
| 2026-04-25 21:43 | 53.79531 | -12.22909 | 27209 ft | 479 kts | 105° |
| 2026-04-25 21:43 | 53.78848 | -12.17383 | 27210 ft | 479 kts | 105° |
| 2026-04-25 21:43 | 53.78163 | -12.11869 | 27210 ft | 479 kts | 105° |
| 2026-04-25 21:43 | 53.77475 | -12.06354 | 27198 ft | 479 kts | 105° |
| 2026-04-25 21:44 | 53.76782 | -12.00823 | 27204 ft | 479 kts | 105° |
| 2026-04-25 21:44 | 53.76090 | -11.95321 | 27212 ft | 479 kts | 105° |
| 2026-04-25 21:44 | 53.74706 | -11.84379 | 27212 ft | 479 kts | 105° |
| 2026-04-25 21:45 | 53.73997 | -11.78801 | 27210 ft | 479 kts | 105° |
| 2026-04-25 21:45 | 53.73531 | -11.75152 | 27211 ft | 479 kts | 105° |
| 2026-04-25 21:45 | 53.72597 | -11.67868 | 27213 ft | 479 kts | 105° |
| 2026-04-25 21:45 | 53.71888 | -11.62360 | 27212 ft | 479 kts | 105° |
| 2026-04-25 21:46 | 53.71178 | -11.56863 | 27214 ft | 479 kts | 105° |
| 2026-04-25 21:46 | 53.70466 | -11.51379 | 27192 ft | 479 kts | 105° |
| 2026-04-25 21:46 | 53.69751 | -11.45884 | 27203 ft | 478 kts | 105° |
| 2026-04-25 21:46 | 53.69034 | -11.40399 | 27195 ft | 478 kts | 105° |
| 2026-04-25 21:47 | 53.68315 | -11.34923 | 27207 ft | 478 kts | 106° |
| 2026-04-25 21:47 | 53.67592 | -11.29439 | 27216 ft | 479 kts | 106° |
| 2026-04-25 21:47 | 53.66868 | -11.23963 | 27224 ft | 479 kts | 106° |
| 2026-04-25 21:47 | 53.66141 | -11.18487 | 27210 ft | 479 kts | 106° |
| 2026-04-25 21:48 | 53.65410 | -11.13001 | 27221 ft | 479 kts | 106° |
| 2026-04-25 21:48 | 53.64677 | -11.07520 | 27220 ft | 480 kts | 106° |
| 2026-04-25 21:48 | 53.63940 | -11.02033 | 27215 ft | 480 kts | 106° |
| 2026-04-25 21:48 | 53.63202 | -10.96554 | 27212 ft | 480 kts | 106° |
| 2026-04-25 21:49 | 53.62459 | -10.91068 | 27222 ft | 480 kts | 106° |
| 2026-04-25 21:49 | 53.61724 | -10.85652 | 27220 ft | 480 kts | 106° |
| 2026-04-25 21:49 | 53.60977 | -10.80166 | 27219 ft | 480 kts | 106° |
| 2026-04-25 21:49 | 53.60227 | -10.74681 | 27219 ft | 480 kts | 106° |
| 2026-04-25 21:50 | 53.59475 | -10.69205 | 27208 ft | 480 kts | 106° |
| 2026-04-25 21:50 | 53.58721 | -10.63733 | 27217 ft | 480 kts | 106° |
| 2026-04-25 21:50 | 53.57964 | -10.58260 | 27210 ft | 480 kts | 106° |
| 2026-04-25 21:50 | 53.57459 | -10.54623 | 27213 ft | 480 kts | 106° |
| 2026-04-25 21:51 | 53.56441 | -10.47311 | 27219 ft | 480 kts | 107° |
| 2026-04-25 21:51 | 53.55677 | -10.41844 | 27222 ft | 480 kts | 107° |
| 2026-04-25 21:51 | 53.54911 | -10.36386 | 27204 ft | 480 kts | 107° |
| 2026-04-25 21:51 | 53.54142 | -10.30924 | 27206 ft | 480 kts | 107° |
| 2026-04-25 21:52 | 53.53370 | -10.25464 | 27215 ft | 480 kts | 107° |
| 2026-04-25 21:52 | 53.52596 | -10.20007 | 27222 ft | 480 kts | 107° |
| 2026-04-25 21:52 | 53.51819 | -10.14546 | 27226 ft | 480 kts | 107° |
| 2026-04-25 21:52 | 53.51038 | -10.09085 | 27225 ft | 481 kts | 107° |
| 2026-04-25 21:53 | 53.50265 | -10.03689 | 27222 ft | 481 kts | 107° |
| 2026-04-25 21:53 | 53.49477 | -9.98218 | 27227 ft | 481 kts | 107° |
| 2026-04-25 21:53 | 53.48689 | -9.92756 | 27224 ft | 482 kts | 107° |
| 2026-04-25 21:53 | 53.47897 | -9.87286 | 27232 ft | 482 kts | 107° |
| 2026-04-25 21:54 | 53.47101 | -9.81814 | 27218 ft | 482 kts | 107° |
| 2026-04-25 21:54 | 53.46305 | -9.76354 | 27214 ft | 482 kts | 107° |
| 2026-04-25 21:54 | 53.45503 | -9.70881 | 27219 ft | 481 kts | 107° |
| 2026-04-25 21:54 | 53.44702 | -9.65428 | 27224 ft | 481 kts | 107° |
| 2026-04-25 21:55 | 53.43899 | -9.59978 | 27211 ft | 481 kts | 107° |
| 2026-04-25 21:55 | 53.43092 | -9.54526 | 27220 ft | 480 kts | 107° |
| 2026-04-25 21:55 | 53.42287 | -9.49100 | 27216 ft | 480 kts | 107° |
| 2026-04-25 21:55 | 53.41488 | -9.43742 | 27216 ft | 480 kts | 107° |
| 2026-04-25 21:56 | 53.40677 | -9.38319 | 27213 ft | 480 kts | 107° |
| 2026-04-25 21:56 | 53.40129 | -9.34658 | 27213 ft | 479 kts | 107° |
| 2026-04-25 21:56 | 53.39051 | -9.27494 | 27210 ft | 479 kts | 107° |
| 2026-04-25 21:56 | 53.38232 | -9.22072 | 27197 ft | 479 kts | 107° |
| 2026-04-25 21:57 | 53.37413 | -9.16664 | 27201 ft | 479 kts | 107° |
| 2026-04-25 21:57 | 53.36592 | -9.11268 | 27205 ft | 478 kts | 107° |
| 2026-04-25 21:57 | 53.35767 | -9.05855 | 27206 ft | 478 kts | 107° |
| 2026-04-25 21:57 | 53.34939 | -9.00444 | 27211 ft | 479 kts | 107° |
| 2026-04-25 21:58 | 53.34110 | -8.95046 | 27211 ft | 479 kts | 107° |
| 2026-04-25 21:58 | 53.33289 | -8.89719 | 27208 ft | 479 kts | 107° |
| 2026-04-25 21:58 | 53.32455 | -8.84323 | 27209 ft | 479 kts | 107° |
| 2026-04-25 21:58 | 53.31617 | -8.78920 | 27208 ft | 480 kts | 107° |
| 2026-04-25 21:59 | 53.30776 | -8.73519 | 27192 ft | 480 kts | 107° |
| 2026-04-25 21:59 | 53.29934 | -8.68117 | 27200 ft | 480 kts | 107° |
| 2026-04-25 21:59 | 53.29087 | -8.62713 | 27208 ft | 480 kts | 107° |
| 2026-04-25 22:00 | 53.27390 | -8.51934 | 27211 ft | 480 kts | 107° |
| 2026-04-25 22:00 | 53.26538 | -8.46547 | 27207 ft | 480 kts | 107° |
| 2026-04-25 22:00 | 53.25683 | -8.41161 | 27202 ft | 480 kts | 107° |
| 2026-04-25 22:00 | 53.24826 | -8.35779 | 27196 ft | 480 kts | 107° |
| 2026-04-25 22:01 | 53.23966 | -8.30390 | 27210 ft | 480 kts | 107° |
| 2026-04-25 22:01 | 53.23104 | -8.25010 | 27207 ft | 480 kts | 107° |
| 2026-04-25 22:01 | 53.22240 | -8.19635 | 27185 ft | 479 kts | 107° |
| 2026-04-25 22:01 | 53.21667 | -8.16081 | 27194 ft | 479 kts | 107° |
| 2026-04-25 22:02 | 53.20516 | -8.08961 | 27197 ft | 479 kts | 108° |
| 2026-04-25 22:02 | 53.19644 | -8.03588 | 27198 ft | 479 kts | 108° |
| 2026-04-25 22:02 | 53.18770 | -7.98220 | 27198 ft | 479 kts | 108° |
| 2026-04-25 22:02 | 53.17895 | -7.92861 | 27199 ft | 478 kts | 108° |
| 2026-04-25 22:03 | 53.17016 | -7.87499 | 27196 ft | 478 kts | 108° |
| 2026-04-25 22:03 | 53.16138 | -7.82155 | 27199 ft | 478 kts | 108° |
| 2026-04-25 22:03 | 53.15258 | -7.76815 | 27195 ft | 478 kts | 108° |
| 2026-04-25 22:03 | 53.14374 | -7.71471 | 27202 ft | 478 kts | 108° |
| 2026-04-25 22:04 | 53.13500 | -7.66200 | 27188 ft | 478 kts | 108° |
| 2026-04-25 22:04 | 53.12613 | -7.60873 | 27192 ft | 478 kts | 108° |
| 2026-04-25 22:04 | 53.11722 | -7.55533 | 27198 ft | 478 kts | 108° |
| 2026-04-25 22:04 | 53.10831 | -7.50216 | 27205 ft | 478 kts | 108° |
| 2026-04-25 22:05 | 53.09936 | -7.44884 | 27204 ft | 478 kts | 108° |
| 2026-04-25 22:05 | 53.09036 | -7.39543 | 27197 ft | 478 kts | 108° |
| 2026-04-25 22:05 | 53.08138 | -7.34226 | 27202 ft | 478 kts | 108° |
| 2026-04-25 22:05 | 53.07236 | -7.28906 | 27204 ft | 478 kts | 108° |
| 2026-04-25 22:06 | 53.06328 | -7.23568 | 27200 ft | 479 kts | 108° |
| 2026-04-25 22:06 | 53.05418 | -7.18228 | 27201 ft | 479 kts | 108° |
| 2026-04-25 22:06 | 53.04520 | -7.12978 | 27201 ft | 479 kts | 108° |
| 2026-04-25 22:06 | 53.03605 | -7.07649 | 27182 ft | 479 kts | 109° |
| 2026-04-25 22:07 | 53.02688 | -7.02318 | 27200 ft | 479 kts | 109° |
| 2026-04-25 22:07 | 53.02081 | -6.98802 | 27202 ft | 479 kts | 109° |
| 2026-04-25 22:07 | 53.00849 | -6.91681 | 27206 ft | 480 kts | 109° |
| 2026-04-25 22:07 | 52.99924 | -6.86354 | 27213 ft | 480 kts | 109° |
| 2026-04-25 22:08 | 52.98995 | -6.81015 | 27210 ft | 481 kts | 109° |
| 2026-04-25 22:08 | 52.98065 | -6.75695 | 27210 ft | 481 kts | 109° |
| 2026-04-25 22:08 | 52.97131 | -6.70364 | 27211 ft | 481 kts | 109° |
| 2026-04-25 22:08 | 52.96192 | -6.65020 | 27218 ft | 482 kts | 109° |
| 2026-04-25 22:09 | 52.95251 | -6.59682 | 27219 ft | 482 kts | 109° |
| 2026-04-25 22:09 | 52.94320 | -6.54411 | 27207 ft | 482 kts | 109° |
| 2026-04-25 22:09 | 52.93376 | -6.49085 | 27216 ft | 482 kts | 109° |
| 2026-04-25 22:09 | 52.92427 | -6.43750 | 27213 ft | 482 kts | 109° |
| 2026-04-25 22:10 | 52.91477 | -6.38423 | 27212 ft | 481 kts | 109° |
| 2026-04-25 22:10 | 52.90526 | -6.33105 | 27219 ft | 481 kts | 109° |
| 2026-04-25 22:10 | 52.89572 | -6.27791 | 27213 ft | 480 kts | 109° |
| 2026-04-25 22:10 | 52.88618 | -6.22487 | 27221 ft | 480 kts | 109° |
| 2026-04-25 22:11 | 52.87663 | -6.17194 | 27227 ft | 479 kts | 109° |
| 2026-04-25 22:11 | 52.86705 | -6.11902 | 27216 ft | 479 kts | 109° |
| 2026-04-25 22:11 | 52.85759 | -6.06684 | 27224 ft | 479 kts | 109° |
| 2026-04-25 22:11 | 52.84800 | -6.01419 | 27202 ft | 478 kts | 109° |
| 2026-04-25 22:12 | 52.83837 | -5.96142 | 27211 ft | 478 kts | 109° |
| 2026-04-25 22:12 | 52.82873 | -5.90876 | 27218 ft | 478 kts | 109° |
| 2026-04-25 22:12 | 52.81904 | -5.85597 | 27220 ft | 479 kts | 109° |
| 2026-04-25 22:12 | 52.81262 | -5.82110 | 27220 ft | 479 kts | 109° |
| 2026-04-25 22:13 | 52.79961 | -5.75054 | 27219 ft | 479 kts | 109° |
| 2026-04-25 22:13 | 52.78983 | -5.69775 | 27219 ft | 479 kts | 109° |
| 2026-04-25 22:13 | 52.78019 | -5.64575 | 27219 ft | 480 kts | 109° |
| 2026-04-25 22:13 | 52.77027 | -5.59240 | 27218 ft | 480 kts | 109° |
| 2026-04-25 22:14 | 52.76051 | -5.54011 | 27220 ft | 480 kts | 109° |
| 2026-04-25 22:14 | 52.74994 | -5.48791 | 27216 ft | 479 kts | 114° |
| 2026-04-25 22:14 | 52.73573 | -5.43830 | 27230 ft | 476 kts | 120° |
| 2026-04-25 22:14 | 52.72034 | -5.38972 | 27223 ft | 477 kts | 121° |
| 2026-04-25 22:15 | 52.70473 | -5.34149 | 27219 ft | 477 kts | 121° |
| 2026-04-25 22:15 | 52.68913 | -5.29328 | 27222 ft | 477 kts | 121° |
| 2026-04-25 22:15 | 52.67359 | -5.24493 | 27223 ft | 477 kts | 120° |
| 2026-04-25 22:16 | 52.64278 | -5.14800 | 27215 ft | 477 kts | 120° |
| 2026-04-25 22:16 | 52.62766 | -5.10015 | 27220 ft | 477 kts | 120° |
| 2026-04-25 22:16 | 52.61235 | -5.05168 | 27224 ft | 477 kts | 120° |
| 2026-04-25 22:16 | 52.59701 | -5.00313 | 27219 ft | 477 kts | 120° |
| 2026-04-25 22:17 | 52.58170 | -4.95479 | 27217 ft | 477 kts | 120° |
| 2026-04-25 22:17 | 52.56632 | -4.90634 | 27221 ft | 477 kts | 120° |
| 2026-04-25 22:17 | 52.55092 | -4.85796 | 27221 ft | 477 kts | 120° |
| 2026-04-25 22:17 | 52.53556 | -4.80981 | 27221 ft | 477 kts | 120° |
| 2026-04-25 22:18 | 52.52012 | -4.76153 | 27214 ft | 477 kts | 120° |
| 2026-04-25 22:18 | 52.50468 | -4.71333 | 27217 ft | 476 kts | 120° |
| 2026-04-25 22:18 | 52.48922 | -4.66516 | 27218 ft | 476 kts | 120° |
| 2026-04-25 22:18 | 52.47377 | -4.61712 | 27223 ft | 476 kts | 120° |
| 2026-04-25 22:19 | 52.46354 | -4.58537 | 27225 ft | 476 kts | 120° |
| 2026-04-25 22:19 | 52.44801 | -4.53725 | 27221 ft | 476 kts | 120° |
| 2026-04-25 22:19 | 52.43254 | -4.48940 | 27209 ft | 476 kts | 120° |
| 2026-04-25 22:19 | 52.41700 | -4.44140 | 27211 ft | 476 kts | 120° |
| 2026-04-25 22:20 | 52.39642 | -4.37802 | 27220 ft | 476 kts | 120° |
| 2026-04-25 22:20 | 52.38592 | -4.34574 | 27224 ft | 476 kts | 120° |
| 2026-04-25 22:20 | 52.37031 | -4.29785 | 27227 ft | 476 kts | 120° |
| 2026-04-25 22:20 | 52.35472 | -4.25008 | 27222 ft | 477 kts | 120° |
| 2026-04-25 22:21 | 52.33927 | -4.20285 | 27219 ft | 477 kts | 120° |
| 2026-04-25 22:21 | 52.32362 | -4.15509 | 27223 ft | 477 kts | 120° |
| 2026-04-25 22:21 | 52.30789 | -4.10719 | 27228 ft | 477 kts | 120° |
| 2026-04-25 22:21 | 52.29220 | -4.05949 | 27224 ft | 478 kts | 120° |
| 2026-04-25 22:22 | 52.27643 | -4.01165 | 27224 ft | 478 kts | 120° |
| 2026-04-25 22:22 | 52.26067 | -3.96394 | 27219 ft | 478 kts | 120° |
| 2026-04-25 22:22 | 52.24485 | -3.91612 | 27221 ft | 478 kts | 120° |
| 2026-04-25 22:22 | 52.22900 | -3.86832 | 27230 ft | 479 kts | 120° |
| 2026-04-25 22:23 | 52.21314 | -3.82055 | 27219 ft | 479 kts | 120° |
| 2026-04-25 22:23 | 52.19721 | -3.77271 | 27220 ft | 480 kts | 120° |
| 2026-04-25 22:23 | 52.18126 | -3.72487 | 27233 ft | 480 kts | 120° |
| 2026-04-25 22:23 | 52.16526 | -3.67699 | 27231 ft | 480 kts | 120° |
| 2026-04-25 22:24 | 52.14923 | -3.62909 | 27231 ft | 481 kts | 121° |
| 2026-04-25 22:24 | 52.13340 | -3.58192 | 27229 ft | 481 kts | 121° |
| 2026-04-25 22:24 | 52.11735 | -3.53416 | 27234 ft | 481 kts | 121° |
| 2026-04-25 22:24 | 52.10128 | -3.48640 | 27235 ft | 481 kts | 121° |
| 2026-04-25 22:25 | 52.08519 | -3.43872 | 27232 ft | 481 kts | 121° |
| 2026-04-25 22:25 | 52.06907 | -3.39096 | 27224 ft | 481 kts | 120° |
| 2026-04-25 22:25 | 52.05288 | -3.34315 | 27231 ft | 482 kts | 120° |
| 2026-04-25 22:25 | 52.03669 | -3.29544 | 27235 ft | 482 kts | 120° |
| 2026-04-25 22:26 | 52.02047 | -3.24776 | 27241 ft | 482 kts | 120° |
| 2026-04-25 22:26 | 52.00421 | -3.20002 | 27248 ft | 483 kts | 120° |
| 2026-04-25 22:26 | 51.98794 | -3.15234 | 27254 ft | 483 kts | 121° |
| 2026-04-25 22:26 | 51.97161 | -3.10458 | 27258 ft | 483 kts | 121° |
| 2026-04-25 22:27 | 51.95548 | -3.05751 | 27271 ft | 483 kts | 121° |
| 2026-04-25 22:27 | 51.93907 | -3.00969 | 27285 ft | 483 kts | 121° |
| 2026-04-25 22:27 | 51.92269 | -2.96205 | 27283 ft | 484 kts | 121° |
| 2026-04-25 22:27 | 51.90629 | -2.91442 | 27296 ft | 484 kts | 120° |
| 2026-04-25 22:28 | 51.88986 | -2.86680 | 27291 ft | 484 kts | 120° |
| 2026-04-25 22:28 | 51.87354 | -2.81962 | 27297 ft | 485 kts | 120° |
| 2026-04-25 22:28 | 51.85705 | -2.77202 | 27224 ft | 485 kts | 120° |
| 2026-04-25 22:28 | 51.84055 | -2.72449 | 27228 ft | 485 kts | 120° |
| 2026-04-25 22:29 | 51.82397 | -2.67683 | 27226 ft | 486 kts | 121° |
| 2026-04-25 22:29 | 51.80737 | -2.62918 | 27226 ft | 486 kts | 121° |
| 2026-04-25 22:29 | 51.79072 | -2.58150 | 27224 ft | 486 kts | 121° |
| 2026-04-25 22:30 | 51.75739 | -2.48628 | 27214 ft | 486 kts | 121° |
| 2026-04-25 22:30 | 51.74073 | -2.43884 | 27225 ft | 486 kts | 121° |
| 2026-04-25 22:30 | 51.72407 | -2.39145 | 27226 ft | 486 kts | 120° |
| 2026-04-25 22:30 | 51.71300 | -2.36004 | 27226 ft | 487 kts | 120° |
| 2026-04-25 22:31 | 51.69060 | -2.29657 | 27244 ft | 487 kts | 120° |
| 2026-04-25 22:31 | 51.67403 | -2.24972 | 27227 ft | 488 kts | 120° |
| 2026-04-25 22:31 | 51.65718 | -2.20218 | 27230 ft | 488 kts | 120° |
| 2026-04-25 22:31 | 51.64033 | -2.15472 | 27233 ft | 488 kts | 121° |
| 2026-04-25 22:32 | 51.62341 | -2.10714 | 27237 ft | 489 kts | 121° |
| 2026-04-25 22:32 | 51.60649 | -2.05966 | 27231 ft | 489 kts | 121° |
| 2026-04-25 22:32 | 51.58954 | -2.01219 | 27232 ft | 489 kts | 121° |
| 2026-04-25 22:32 | 51.57258 | -1.96478 | 27226 ft | 489 kts | 121° |
| 2026-04-25 22:33 | 51.55559 | -1.91736 | 27227 ft | 489 kts | 120° |
| 2026-04-25 22:33 | 51.53856 | -1.86991 | 27220 ft | 490 kts | 120° |
| 2026-04-25 22:33 | 51.52153 | -1.82254 | 27233 ft | 490 kts | 120° |
| 2026-04-25 22:33 | 51.50465 | -1.77565 | 27241 ft | 491 kts | 120° |
| 2026-04-25 22:34 | 51.48750 | -1.72815 | 27230 ft | 491 kts | 120° |
| 2026-04-25 22:34 | 51.47181 | -1.67922 | 27226 ft | 492 kts | 112° |
| 2026-04-25 22:34 | 51.46084 | -1.62767 | 27221 ft | 491 kts | 103° |
| 2026-04-25 22:34 | 51.45408 | -1.57386 | 27246 ft | 491 kts | 100° |
| 2026-04-25 22:35 | 51.44754 | -1.52014 | 27237 ft | 491 kts | 101° |
| 2026-04-25 22:35 | 51.44048 | -1.46656 | 27235 ft | 492 kts | 102° |
| 2026-04-25 22:35 | 51.43305 | -1.41289 | 27243 ft | 492 kts | 101° |
| 2026-04-25 22:35 | 51.42554 | -1.35940 | 27235 ft | 492 kts | 101° |
| 2026-04-25 22:36 | 51.41801 | -1.30595 | 27241 ft | 492 kts | 101° |
| 2026-04-25 22:36 | 51.41051 | -1.25242 | 27242 ft | 492 kts | 101° |
| 2026-04-25 22:36 | 51.40301 | -1.19891 | 27243 ft | 492 kts | 101° |
| 2026-04-25 22:36 | 51.39581 | -1.14594 | 27242 ft | 492 kts | 99° |
| 2026-04-25 22:37 | 51.39138 | -1.09162 | 27251 ft | 490 kts | 94° |
| 2026-04-25 22:37 | 51.38867 | -1.03733 | 27238 ft | 490 kts | 92° |
| 2026-04-25 22:37 | 51.38640 | -0.98271 | 27238 ft | 490 kts | 92° |
| 2026-04-25 22:37 | 51.38414 | -0.92831 | 27261 ft | 490 kts | 92° |
| 2026-04-25 22:38 | 51.38171 | -0.87386 | 27247 ft | 490 kts | 92° |
| 2026-04-25 22:38 | 51.37908 | -0.81944 | 27243 ft | 490 kts | 92° |
| 2026-04-25 22:38 | 51.37630 | -0.76507 | 27244 ft | 490 kts | 93° |
| 2026-04-25 22:38 | 51.37341 | -0.71070 | 27239 ft | 490 kts | 93° |
| 2026-04-25 22:39 | 51.37046 | -0.65633 | 27237 ft | 490 kts | 93° |
| 2026-04-25 22:39 | 51.36748 | -0.60209 | 27240 ft | 490 kts | 93° |
| 2026-04-25 22:39 | 51.36449 | -0.54779 | 27240 ft | 489 kts | 93° |
| 2026-04-25 22:39 | 51.36149 | -0.49363 | 27232 ft | 489 kts | 93° |
| 2026-04-25 22:40 | 51.35847 | -0.43941 | 27234 ft | 489 kts | 93° |
| 2026-04-25 22:40 | 51.35543 | -0.38520 | 27238 ft | 489 kts | 93° |
| 2026-04-25 22:40 | 51.35236 | -0.33099 | 27240 ft | 489 kts | 93° |
| 2026-04-25 22:40 | 51.34927 | -0.27670 | 27244 ft | 489 kts | 93° |
| 2026-04-25 22:41 | 51.34616 | -0.22265 | 27246 ft | 489 kts | 93° |
| 2026-04-25 22:41 | 51.34301 | -0.16846 | 27246 ft | 489 kts | 94° |
| 2026-04-25 22:41 | 51.33985 | -0.11435 | 27240 ft | 489 kts | 94° |
| 2026-04-25 22:41 | 51.33667 | -0.06020 | 27247 ft | 489 kts | 94° |
| 2026-04-25 22:42 | 51.33346 | -0.00607 | 27254 ft | 489 kts | 94° |
| 2026-04-25 22:42 | 51.33025 | 0.04803 | 27253 ft | 489 kts | 93° |
| 2026-04-25 22:42 | 51.32746 | 0.10220 | 27257 ft | 488 kts | 92° |
| 2026-04-25 22:42 | 51.32502 | 0.15570 | 27262 ft | 488 kts | 92° |
| 2026-04-25 22:43 | 51.32264 | 0.20977 | 27265 ft | 488 kts | 92° |
| 2026-04-25 22:43 | 51.32021 | 0.26405 | 27265 ft | 488 kts | 92° |
| 2026-04-25 22:43 | 51.31771 | 0.31817 | 27259 ft | 488 kts | 92° |
| 2026-04-25 22:43 | 51.31512 | 0.37235 | 27257 ft | 488 kts | 92° |
| 2026-04-25 22:44 | 51.31248 | 0.42659 | 27267 ft | 488 kts | 92° |
| 2026-04-25 22:44 | 51.30981 | 0.48072 | 27270 ft | 488 kts | 92° |
| 2026-04-25 22:44 | 51.30712 | 0.53482 | 27276 ft | 488 kts | 92° |
| 2026-04-25 22:44 | 51.30441 | 0.58900 | 27271 ft | 488 kts | 92° |
| 2026-04-25 22:45 | 51.30195 | 0.64310 | 27273 ft | 491 kts | 91° |
| 2026-04-25 22:45 | 51.29997 | 0.69722 | 27277 ft | 495 kts | 91° |
| 2026-04-25 22:45 | 51.29813 | 0.75213 | 27270 ft | 496 kts | 91° |
| 2026-04-25 22:45 | 51.29626 | 0.80725 | 27261 ft | 496 kts | 91° |
| 2026-04-25 22:46 | 51.29431 | 0.86217 | 27264 ft | 496 kts | 91° |
| 2026-04-25 22:46 | 51.29226 | 0.91721 | 27258 ft | 495 kts | 91° |
| 2026-04-25 22:46 | 51.29016 | 0.97213 | 27283 ft | 495 kts | 91° |
| 2026-04-25 22:46 | 51.28803 | 1.02705 | 27270 ft | 495 kts | 91° |
| 2026-04-25 22:47 | 51.28586 | 1.08199 | 27265 ft | 495 kts | 92° |
| 2026-04-25 22:47 | 51.28366 | 1.13671 | 27267 ft | 494 kts | 92° |
| 2026-04-25 22:47 | 51.28142 | 1.19157 | 27267 ft | 494 kts | 92° |
| 2026-04-25 22:47 | 51.27917 | 1.24635 | 27270 ft | 493 kts | 92° |
| 2026-04-25 22:48 | 51.27690 | 1.30098 | 27268 ft | 493 kts | 92° |
| 2026-04-25 22:48 | 51.27463 | 1.35494 | 27267 ft | 493 kts | 92° |
| 2026-04-25 22:48 | 51.27233 | 1.40964 | 27015 ft | 494 kts | 92° |
| 2026-04-25 22:48 | 51.26999 | 1.46437 | 26423 ft | 493 kts | 92° |
| 2026-04-25 22:49 | 51.26762 | 1.51908 | 25799 ft | 491 kts | 92° |
| 2026-04-25 22:49 | 51.26527 | 1.57314 | 25198 ft | 486 kts | 92° |
| 2026-04-25 22:49 | 51.26292 | 1.62678 | 24605 ft | 482 kts | 92° |
| 2026-04-25 22:49 | 51.26057 | 1.68003 | 24023 ft | 478 kts | 92° |
| 2026-04-25 22:50 | 51.25826 | 1.73199 | 23483 ft | 474 kts | 92° |
| 2026-04-25 22:50 | 51.25592 | 1.78429 | 23323 ft | 472 kts | 92° |
| 2026-04-25 22:50 | 51.25356 | 1.83639 | 23263 ft | 469 kts | 92° |
| 2026-04-25 22:50 | 51.25119 | 1.88821 | 23255 ft | 466 kts | 92° |
| 2026-04-25 22:51 | 51.24882 | 1.93968 | 23257 ft | 463 kts | 92° |
| 2026-04-25 22:51 | 51.24644 | 1.99075 | 23249 ft | 461 kts | 92° |
| 2026-04-25 22:51 | 51.24407 | 2.04168 | 23248 ft | 458 kts | 92° |
| 2026-04-25 22:51 | 51.24140 | 2.09217 | 23245 ft | 457 kts | 96° |
| 2026-04-25 22:52 | 51.23589 | 2.14211 | 23258 ft | 455 kts | 100° |
| 2026-04-25 22:52 | 51.22930 | 2.19156 | 23280 ft | 460 kts | 101° |
| 2026-04-25 22:52 | 51.22228 | 2.24186 | 23271 ft | 469 kts | 101° |
| 2026-04-25 22:52 | 51.21752 | 2.27566 | 23278 ft | 474 kts | 101° |
| 2026-04-25 22:53 | 51.20769 | 2.34505 | 23264 ft | 483 kts | 101° |
| 2026-04-25 22:53 | 51.20021 | 2.39757 | 23251 ft | 483 kts | 102° |
| 2026-04-25 22:53 | 51.19294 | 2.44890 | 23238 ft | 479 kts | 102° |
| 2026-04-25 22:53 | 51.18572 | 2.50012 | 22997 ft | 469 kts | 102° |
| 2026-04-25 22:54 | 51.17856 | 2.55090 | 22728 ft | 468 kts | 102° |
| 2026-04-25 22:54 | 51.17144 | 2.60149 | 22469 ft | 467 kts | 102° |
| 2026-04-25 22:54 | 51.16433 | 2.65204 | 22203 ft | 465 kts | 102° |
| 2026-04-25 22:54 | 51.15727 | 2.70216 | 21936 ft | 463 kts | 102° |
| 2026-04-25 22:55 | 51.15022 | 2.75209 | 21681 ft | 461 kts | 102° |
| 2026-04-25 22:55 | 51.14319 | 2.80183 | 21428 ft | 459 kts | 102° |
| 2026-04-25 22:55 | 51.13627 | 2.85070 | 21204 ft | 458 kts | 102° |
| 2026-04-25 22:55 | 51.12931 | 2.90011 | 20951 ft | 456 kts | 102° |
| 2026-04-25 22:56 | 51.12244 | 2.94926 | 20702 ft | 454 kts | 102° |
| 2026-04-25 22:56 | 51.11562 | 2.99821 | 20450 ft | 452 kts | 102° |
| 2026-04-25 22:56 | 51.10884 | 3.04690 | 20201 ft | 450 kts | 102° |
| 2026-04-25 22:56 | 51.10207 | 3.09542 | 19954 ft | 448 kts | 102° |
| 2026-04-25 22:57 | 51.09531 | 3.14380 | 19707 ft | 447 kts | 102° |
| 2026-04-25 22:57 | 51.08857 | 3.19194 | 19464 ft | 445 kts | 102° |
| 2026-04-25 22:57 | 51.08184 | 3.23989 | 19223 ft | 443 kts | 102° |
| 2026-04-25 22:57 | 51.07510 | 3.28769 | 18984 ft | 442 kts | 102° |
| 2026-04-25 22:58 | 51.06839 | 3.33526 | 18747 ft | 440 kts | 102° |
| 2026-04-25 22:58 | 51.06172 | 3.38269 | 18503 ft | 438 kts | 102° |
| 2026-04-25 22:58 | 51.05509 | 3.42987 | 18239 ft | 436 kts | 102° |
| 2026-04-25 22:58 | 51.04848 | 3.47682 | 17973 ft | 435 kts | 102° |
| 2026-04-25 22:59 | 51.04190 | 3.52356 | 17705 ft | 433 kts | 102° |
| 2026-04-25 22:59 | 51.03531 | 3.57014 | 17442 ft | 431 kts | 102° |
| 2026-04-25 22:59 | 51.02872 | 3.61669 | 17181 ft | 430 kts | 102° |
| 2026-04-25 22:59 | 51.02216 | 3.66278 | 16687 ft | 426 kts | 102° |
| 2026-04-25 23:00 | 51.01573 | 3.70777 | 16164 ft | 419 kts | 102° |
| 2026-04-25 23:00 | 51.00927 | 3.75256 | 15630 ft | 412 kts | 102° |
| 2026-04-25 23:00 | 51.00287 | 3.79666 | 15130 ft | 408 kts | 102° |
| 2026-04-25 23:00 | 50.99648 | 3.84038 | 14617 ft | 404 kts | 102° |
| 2026-04-25 23:01 | 50.99009 | 3.88380 | 14137 ft | 407 kts | 101° |
| 2026-04-25 23:01 | 50.98725 | 3.92843 | 13587 ft | 405 kts | 85° |
| 2026-04-25 23:01 | 50.99069 | 3.97235 | 13072 ft | 397 kts | 79° |
| 2026-04-25 23:01 | 50.99551 | 4.01523 | 12522 ft | 392 kts | 78° |
| 2026-04-25 23:02 | 51.00059 | 4.05766 | 11982 ft | 390 kts | 77° |
| 2026-04-25 23:02 | 51.00565 | 4.09939 | 11427 ft | 377 kts | 77° |
| 2026-04-25 23:02 | 51.01052 | 4.13949 | 10882 ft | 364 kts | 77° |
| 2026-04-25 23:02 | 51.01524 | 4.17835 | 10347 ft | 352 kts | 77° |
| 2026-04-25 23:03 | 51.01981 | 4.21607 | 9778 ft | 342 kts | 77° |
| 2026-04-25 23:03 | 51.02418 | 4.25228 | 9213 ft | 334 kts | 77° |
| 2026-04-25 23:03 | 51.02847 | 4.28795 | 8673 ft | 323 kts | 77° |
| 2026-04-25 23:03 | 51.03256 | 4.32218 | 8147 ft | 307 kts | 77° |
| 2026-04-25 23:04 | 51.03640 | 4.35465 | 7750 ft | 290 kts | 77° |
| 2026-04-25 23:04 | 51.03881 | 4.37516 | 7492 ft | 281 kts | 77° |
| 2026-04-25 23:04 | 51.04350 | 4.41541 | 7007 ft | 276 kts | 77° |
| 2026-04-25 23:04 | 51.04701 | 4.44549 | 6693 ft | 276 kts | 77° |
| 2026-04-25 23:05 | 51.05048 | 4.47536 | 6391 ft | 274 kts | 77° |
| 2026-04-25 23:05 | 51.05393 | 4.50503 | 6082 ft | 272 kts | 77° |
| 2026-04-25 23:05 | 51.05732 | 4.53407 | 5775 ft | 270 kts | 77° |
| 2026-04-25 23:05 | 51.06073 | 4.56335 | 5475 ft | 268 kts | 77° |
| 2026-04-25 23:06 | 51.06412 | 4.59238 | 5175 ft | 266 kts | 77° |
| 2026-04-25 23:06 | 51.06750 | 4.62137 | 4867 ft | 265 kts | 77° |
| 2026-04-25 23:06 | 51.07087 | 4.65009 | 4557 ft | 264 kts | 77° |
| 2026-04-25 23:06 | 51.07309 | 4.66910 | 4348 ft | 263 kts | 77° |
| 2026-04-25 23:07 | 51.07643 | 4.69764 | 4030 ft | 262 kts | 77° |
| 2026-04-25 23:07 | 51.08082 | 4.73528 | 3647 ft | 260 kts | 77° |
| 2026-04-25 23:07 | 51.08285 | 4.75417 | 3491 ft | 254 kts | 82° |
| 2026-04-25 23:07 | 51.07807 | 4.78905 | 3156 ft | 242 kts | 122° |
| 2026-04-25 23:08 | 51.07044 | 4.80215 | 3047 ft | 237 kts | 139° |
| 2026-04-25 23:08 | 51.05752 | 4.81809 | 3040 ft | 237 kts | 142° |
| 2026-04-25 23:08 | 51.04426 | 4.83369 | 3045 ft | 237 kts | 142° |
| 2026-04-25 23:08 | 51.03095 | 4.84923 | 3032 ft | 237 kts | 142° |
| 2026-04-25 23:09 | 51.01765 | 4.86465 | 3010 ft | 232 kts | 144° |
| 2026-04-25 23:09 | 51.00333 | 4.87361 | 2992 ft | 214 kts | 178° |
| 2026-04-25 23:09 | 50.98967 | 4.86842 | 2994 ft | 198 kts | 216° |
| 2026-04-25 23:09 | 50.97917 | 4.85491 | 3033 ft | 195 kts | 222° |
| 2026-04-25 23:10 | 50.97001 | 4.83923 | 3001 ft | 193 kts | 248° |
| 2026-04-25 23:10 | 50.96699 | 4.81917 | 3021 ft | 187 kts | 260° |
| 2026-04-25 23:10 | 50.96314 | 4.79941 | 3023 ft | 187 kts | 253° |
| 2026-04-25 23:10 | 50.95865 | 4.77995 | 3018 ft | 188 kts | 252° |
| 2026-04-25 23:11 | 50.95408 | 4.76042 | 3020 ft | 190 kts | 253° |
| 2026-04-25 23:11 | 50.94949 | 4.74081 | 2992 ft | 191 kts | 253° |
| 2026-04-25 23:11 | 50.94483 | 4.72084 | 2800 ft | 194 kts | 253° |
| 2026-04-25 23:11 | 50.94022 | 4.70108 | 2547 ft | 192 kts | 252° |
| 2026-04-25 23:12 | 50.93569 | 4.68164 | 2309 ft | 186 kts | 252° |
| 2026-04-25 23:12 | 50.93123 | 4.66250 | 2099 ft | 184 kts | 252° |
| 2026-04-25 23:12 | 50.92688 | 4.64377 | 1802 ft | 173 kts | 252° |
| 2026-04-25 23:12 | 50.92291 | 4.62671 | 1564 ft | 159 kts | 252° |
| 2026-04-25 23:13 | 50.91912 | 4.61050 | 1386 ft | 156 kts | 252° |
| 2026-04-25 23:13 | 50.91522 | 4.59450 | 1198 ft | 157 kts | 252° |
| 2026-04-25 23:13 | 50.91143 | 4.57814 | 962 ft | 157 kts | 254° |
| 2026-04-25 23:13 | 50.90792 | 4.56200 | 708 ft | 152 kts | 251° |
| 2026-04-25 23:14 | 50.90426 | 4.54651 | 487 ft | 148 kts | 251° |
| 2026-04-25 23:14 | 50.90074 | 4.53130 | 296 ft | 146 kts | 251° |
| 2026-04-25 23:14 | 50.89734 | 4.51643 | 155 ft | 138 kts | 251° |
| 2026-04-25 23:14 | 50.89458 | 4.50428 | 144 ft | 88 kts | 249° |
| 2026-04-25 23:15 | 50.89335 | 4.49835 | 150 ft | 33 kts | 268° |
| 2026-04-25 23:15 | 50.89387 | 4.49640 | 144 ft | 11 kts | 307° |
| 2026-04-25 23:15 | 50.89457 | 4.49492 | 141 ft | 25 kts | 306° |
| 2026-04-25 23:15 | 50.89547 | 4.49303 | 140 ft | 12 kts | 307° |
| 2026-04-25 23:16 | 50.89557 | 4.49282 | 141 ft | 0 kts | 307° |
| 2026-04-25 23:17 | 50.89558 | 4.49280 | 141 ft | 3 kts | 307° |
| 2026-04-25 23:17 | 50.89596 | 4.49199 | 142 ft | 15 kts | 307° |
| 2026-04-25 23:18 | 50.89677 | 4.49159 | 143 ft | 11 kts | 10° |
| 2026-04-25 23:18 | 50.89772 | 4.49195 | 145 ft | 17 kts | 15° |
| 2026-04-25 23:18 | 50.89884 | 4.49243 | 145 ft | 17 kts | 14° |
| 2026-04-25 23:18 | 50.89967 | 4.49212 | 143 ft | 15 kts | 279° |
| 2026-04-25 23:19 | 50.89928 | 4.49050 | 145 ft | 15 kts | 244° |
| 2026-04-25 23:19 | 50.89900 | 4.48955 | 146 ft | 6 kts | 255° |
| 2026-04-25 23:19 | 50.89923 | 4.48884 | 146 ft | 10 kts | 322° |
| 2026-04-25 23:19 | 50.89970 | 4.48847 | 145 ft | 4 kts | 336° |
| 2026-04-25 23:20 | 50.89986 | 4.48836 | 145 ft | 2 kts | 334° |
| 2026-04-25 23:20 | 50.89989 | 4.48834 | 144 ft | 1 kts | 334° |
| 2026-04-25 23:20 | 50.89993 | 4.48830 | 144 ft | 0 kts | 335° |